<?xml version="1.0" encoding="UTF-8" standalone="no" ?>
<gpx xmlns="http://www.topografix.com/GPX/1/1" xmlns:xsi="http://www.w3.org/2001/XMLSchema-instance" xsi:schemaLocation="http://www.topografix.com/GPX/1/1 http://www.topografix.com/GPX/1/1/gpx.xsd" version="1.1" creator="VisuGPX - https://www.visugpx.com">
  <metadata>
    <name>Roue des Forts 10 km</name>
  </metadata>
  <trk>
    <name><![CDATA[10km rando definitif]]></name>
    <trkseg>
      <trkpt lat="48.14793" lon="6.45159">
        <ele>417.037122</ele>
        <time>2022-06-06T07:59:15.085Z</time>
      </trkpt>
      <trkpt lat="48.14773" lon="6.4516">
        <ele>417.037122</ele>
        <time>2022-06-06T07:59:36.933Z</time>
      </trkpt>
      <trkpt lat="48.14768" lon="6.45175">
        <ele>417.037122</ele>
        <time>2022-06-06T07:59:39.965Z</time>
      </trkpt>
      <trkpt lat="48.14767" lon="6.45191">
        <ele>417.037122</ele>
        <time>2022-06-06T07:59:42.950Z</time>
      </trkpt>
      <trkpt lat="48.14765" lon="6.45206">
        <ele>417.037122</ele>
        <time>2022-06-06T07:59:45.984Z</time>
      </trkpt>
      <trkpt lat="48.14763" lon="6.4522">
        <ele>417.037122</ele>
        <time>2022-06-06T07:59:48.940Z</time>
      </trkpt>
      <trkpt lat="48.1476" lon="6.45235">
        <ele>417.037122</ele>
        <time>2022-06-06T07:59:51.978Z</time>
      </trkpt>
      <trkpt lat="48.14758" lon="6.45249">
        <ele>417.037122</ele>
        <time>2022-06-06T07:59:54.966Z</time>
      </trkpt>
      <trkpt lat="48.14764" lon="6.45263">
        <ele>416.953337</ele>
        <time>2022-06-06T07:59:58.937Z</time>
      </trkpt>
      <trkpt lat="48.14775" lon="6.45264">
        <ele>416.636828</ele>
        <time>2022-06-06T08:00:01.965Z</time>
      </trkpt>
      <trkpt lat="48.14784" lon="6.45268">
        <ele>416.335125</ele>
        <time>2022-06-06T08:00:04.991Z</time>
      </trkpt>
      <trkpt lat="48.14796" lon="6.45272">
        <ele>415.956291</ele>
        <time>2022-06-06T08:00:07.966Z</time>
      </trkpt>
      <trkpt lat="48.14806" lon="6.45277">
        <ele>415.648034</ele>
        <time>2022-06-06T08:00:10.957Z</time>
      </trkpt>
      <trkpt lat="48.14817" lon="6.4528">
        <ele>415.309646</ele>
        <time>2022-06-06T08:00:14.960Z</time>
      </trkpt>
      <trkpt lat="48.14828" lon="6.45277">
        <ele>414.945891</ele>
        <time>2022-06-06T08:00:18.968Z</time>
      </trkpt>
      <trkpt lat="48.14836" lon="6.45268">
        <ele>414.641154</ele>
        <time>2022-06-06T08:00:21.947Z</time>
      </trkpt>
      <trkpt lat="48.14845" lon="6.45258">
        <ele>414.293607</ele>
        <time>2022-06-06T08:00:25.977Z</time>
      </trkpt>
      <trkpt lat="48.14854" lon="6.45249">
        <ele>413.991182</ele>
        <time>2022-06-06T08:00:28.966Z</time>
      </trkpt>
      <trkpt lat="48.14863" lon="6.45253">
        <ele>413.681581</ele>
        <time>2022-06-06T08:00:32.943Z</time>
      </trkpt>
      <trkpt lat="48.14872" lon="6.45267">
        <ele>413.287092</ele>
        <time>2022-06-06T08:00:36.961Z</time>
      </trkpt>
      <trkpt lat="48.1488" lon="6.45277">
        <ele>412.984078</ele>
        <time>2022-06-06T08:00:38.959Z</time>
      </trkpt>
      <trkpt lat="48.14876" lon="6.45292">
        <ele>412.66694</ele>
        <time>2022-06-06T08:00:43.956Z</time>
      </trkpt>
      <trkpt lat="48.14868" lon="6.45304">
        <ele>412.309219</ele>
        <time>2022-06-06T08:00:47.937Z</time>
      </trkpt>
      <trkpt lat="48.14861" lon="6.45315">
        <ele>412.006322</ele>
        <time>2022-06-06T08:00:51.955Z</time>
      </trkpt>
      <trkpt lat="48.14854" lon="6.45324">
        <ele>411.721135</ele>
        <time>2022-06-06T08:00:55.953Z</time>
      </trkpt>
      <trkpt lat="48.14845" lon="6.45336">
        <ele>411.480812</ele>
        <time>2022-06-06T08:00:59.963Z</time>
      </trkpt>
      <trkpt lat="48.14839" lon="6.45346">
        <ele>411.389597</ele>
        <time>2022-06-06T08:01:02.975Z</time>
      </trkpt>
      <trkpt lat="48.14833" lon="6.45357">
        <ele>411.293061</ele>
        <time>2022-06-06T08:01:05.957Z</time>
      </trkpt>
      <trkpt lat="48.14827" lon="6.45367">
        <ele>411.19865</ele>
        <time>2022-06-06T08:01:08.933Z</time>
      </trkpt>
      <trkpt lat="48.1482" lon="6.45377">
        <ele>411.105107</ele>
        <time>2022-06-06T08:01:11.943Z</time>
      </trkpt>
      <trkpt lat="48.14813" lon="6.45388">
        <ele>411.001111</ele>
        <time>2022-06-06T08:01:14.950Z</time>
      </trkpt>
      <trkpt lat="48.14805" lon="6.45401">
        <ele>410.88348</ele>
        <time>2022-06-06T08:01:17.956Z</time>
      </trkpt>
      <trkpt lat="48.14798" lon="6.45411">
        <ele>410.787305</ele>
        <time>2022-06-06T08:01:20.938Z</time>
      </trkpt>
      <trkpt lat="48.14792" lon="6.45422">
        <ele>410.689233</ele>
        <time>2022-06-06T08:01:23.957Z</time>
      </trkpt>
      <trkpt lat="48.14786" lon="6.45433">
        <ele>410.595463</ele>
        <time>2022-06-06T08:01:26.936Z</time>
      </trkpt>
      <trkpt lat="48.14778" lon="6.45444">
        <ele>410.482109</ele>
        <time>2022-06-06T08:01:30.931Z</time>
      </trkpt>
      <trkpt lat="48.14771" lon="6.45455">
        <ele>410.384767</ele>
        <time>2022-06-06T08:01:33.949Z</time>
      </trkpt>
      <trkpt lat="48.14765" lon="6.45464">
        <ele>410.294073</ele>
        <time>2022-06-06T08:01:36.939Z</time>
      </trkpt>
      <trkpt lat="48.14757" lon="6.45474">
        <ele>410.194431</ele>
        <time>2022-06-06T08:01:39.946Z</time>
      </trkpt>
      <trkpt lat="48.14749" lon="6.45485">
        <ele>410.081164</ele>
        <time>2022-06-06T08:01:43.937Z</time>
      </trkpt>
      <trkpt lat="48.14742" lon="6.45498">
        <ele>409.973068</ele>
        <time>2022-06-06T08:01:47.936Z</time>
      </trkpt>
      <trkpt lat="48.14736" lon="6.45509">
        <ele>409.879103</ele>
        <time>2022-06-06T08:01:50.947Z</time>
      </trkpt>
      <trkpt lat="48.14729" lon="6.45523">
        <ele>409.760267</ele>
        <time>2022-06-06T08:01:54.952Z</time>
      </trkpt>
      <trkpt lat="48.14721" lon="6.45536">
        <ele>409.81004</ele>
        <time>2022-06-06T08:01:58.942Z</time>
      </trkpt>
      <trkpt lat="48.14715" lon="6.45546">
        <ele>409.904967</ele>
        <time>2022-06-06T08:02:01.938Z</time>
      </trkpt>
      <trkpt lat="48.14709" lon="6.45557">
        <ele>410.004816</ele>
        <time>2022-06-06T08:02:04.959Z</time>
      </trkpt>
      <trkpt lat="48.14703" lon="6.45568">
        <ele>410.10664</ele>
        <time>2022-06-06T08:02:07.956Z</time>
      </trkpt>
      <trkpt lat="48.14697" lon="6.4558">
        <ele>410.210846</ele>
        <time>2022-06-06T08:02:10.930Z</time>
      </trkpt>
      <trkpt lat="48.1469" lon="6.45594">
        <ele>410.332152</ele>
        <time>2022-06-06T08:02:14.929Z</time>
      </trkpt>
      <trkpt lat="48.14684" lon="6.45605">
        <ele>410.434063</ele>
        <time>2022-06-06T08:02:17.948Z</time>
      </trkpt>
      <trkpt lat="48.14677" lon="6.45619">
        <ele>410.552868</ele>
        <time>2022-06-06T08:02:21.947Z</time>
      </trkpt>
      <trkpt lat="48.14671" lon="6.4563">
        <ele>410.651394</ele>
        <time>2022-06-06T08:02:24.919Z</time>
      </trkpt>
      <trkpt lat="48.14665" lon="6.4564">
        <ele>410.747633</ele>
        <time>2022-06-06T08:02:27.937Z</time>
      </trkpt>
      <trkpt lat="48.1466" lon="6.45651">
        <ele>410.842479</ele>
        <time>2022-06-06T08:02:30.963Z</time>
      </trkpt>
      <trkpt lat="48.14655" lon="6.45663">
        <ele>410.937767</ele>
        <time>2022-06-06T08:02:33.958Z</time>
      </trkpt>
      <trkpt lat="48.14648" lon="6.45673">
        <ele>411.037388</ele>
        <time>2022-06-06T08:02:36.919Z</time>
      </trkpt>
      <trkpt lat="48.14642" lon="6.45688">
        <ele>411.161151</ele>
        <time>2022-06-06T08:02:40.965Z</time>
      </trkpt>
      <trkpt lat="48.14635" lon="6.457">
        <ele>411.27561</ele>
        <time>2022-06-06T08:02:43.951Z</time>
      </trkpt>
      <trkpt lat="48.14629" lon="6.45711">
        <ele>411.372938</ele>
        <time>2022-06-06T08:02:46.936Z</time>
      </trkpt>
      <trkpt lat="48.14622" lon="6.45726">
        <ele>411.496701</ele>
        <time>2022-06-06T08:02:50.940Z</time>
      </trkpt>
      <trkpt lat="48.14616" lon="6.45737">
        <ele>411.595477</ele>
        <time>2022-06-06T08:02:53.939Z</time>
      </trkpt>
      <trkpt lat="48.1461" lon="6.45751">
        <ele>411.709364</ele>
        <time>2022-06-06T08:02:57.928Z</time>
      </trkpt>
      <trkpt lat="48.14603" lon="6.45765">
        <ele>411.825905</ele>
        <time>2022-06-06T08:03:01.939Z</time>
      </trkpt>
      <trkpt lat="48.14595" lon="6.45778">
        <ele>411.939909</ele>
        <time>2022-06-06T08:03:05.931Z</time>
      </trkpt>
      <trkpt lat="48.14589" lon="6.45788">
        <ele>412.032947</ele>
        <time>2022-06-06T08:03:08.926Z</time>
      </trkpt>
      <trkpt lat="48.14584" lon="6.45804">
        <ele>412.150856</ele>
        <time>2022-06-06T08:03:12.937Z</time>
      </trkpt>
      <trkpt lat="48.14578" lon="6.4582">
        <ele>412.27443</ele>
        <time>2022-06-06T08:03:16.939Z</time>
      </trkpt>
      <trkpt lat="48.14573" lon="6.45834">
        <ele>412.383075</ele>
        <time>2022-06-06T08:03:20.951Z</time>
      </trkpt>
      <trkpt lat="48.14569" lon="6.45847">
        <ele>412.474081</ele>
        <time>2022-06-06T08:03:23.933Z</time>
      </trkpt>
      <trkpt lat="48.14565" lon="6.45861">
        <ele>412.576254</ele>
        <time>2022-06-06T08:03:26.945Z</time>
      </trkpt>
      <trkpt lat="48.1456" lon="6.45876">
        <ele>412.688605</ele>
        <time>2022-06-06T08:03:29.953Z</time>
      </trkpt>
      <trkpt lat="48.14556" lon="6.4589">
        <ele>412.792461</ele>
        <time>2022-06-06T08:03:32.917Z</time>
      </trkpt>
      <trkpt lat="48.14552" lon="6.45905">
        <ele>412.900949</ele>
        <time>2022-06-06T08:03:36.935Z</time>
      </trkpt>
      <trkpt lat="48.14549" lon="6.45919">
        <ele>412.995491</ele>
        <time>2022-06-06T08:03:39.932Z</time>
      </trkpt>
      <trkpt lat="48.14547" lon="6.45933">
        <ele>413.09545</ele>
        <time>2022-06-06T08:03:42.929Z</time>
      </trkpt>
      <trkpt lat="48.14543" lon="6.4595">
        <ele>413.213044</ele>
        <time>2022-06-06T08:03:45.921Z</time>
      </trkpt>
      <trkpt lat="48.1454" lon="6.45964">
        <ele>413.311447</ele>
        <time>2022-06-06T08:03:48.951Z</time>
      </trkpt>
      <trkpt lat="48.14537" lon="6.45981">
        <ele>413.431283</ele>
        <time>2022-06-06T08:03:52.949Z</time>
      </trkpt>
      <trkpt lat="48.14533" lon="6.45998">
        <ele>413.567789</ele>
        <time>2022-06-06T08:03:56.924Z</time>
      </trkpt>
      <trkpt lat="48.14531" lon="6.46014">
        <ele>413.690034</ele>
        <time>2022-06-06T08:03:59.928Z</time>
      </trkpt>
      <trkpt lat="48.14529" lon="6.46032">
        <ele>413.828544</ele>
        <time>2022-06-06T08:04:03.969Z</time>
      </trkpt>
      <trkpt lat="48.14527" lon="6.46046">
        <ele>413.937065</ele>
        <time>2022-06-06T08:04:06.938Z</time>
      </trkpt>
      <trkpt lat="48.14525" lon="6.4606">
        <ele>414.04335</ele>
        <time>2022-06-06T08:04:09.934Z</time>
      </trkpt>
      <trkpt lat="48.14525" lon="6.46074">
        <ele>414.147925</ele>
        <time>2022-06-06T08:04:12.928Z</time>
      </trkpt>
      <trkpt lat="48.14524" lon="6.46087">
        <ele>414.251842</ele>
        <time>2022-06-06T08:04:15.955Z</time>
      </trkpt>
      <trkpt lat="48.14522" lon="6.461">
        <ele>414.35431</ele>
        <time>2022-06-06T08:04:18.940Z</time>
      </trkpt>
      <trkpt lat="48.14519" lon="6.46117">
        <ele>414.483717</ele>
        <time>2022-06-06T08:04:22.934Z</time>
      </trkpt>
      <trkpt lat="48.14518" lon="6.46131">
        <ele>414.587981</ele>
        <time>2022-06-06T08:04:25.919Z</time>
      </trkpt>
      <trkpt lat="48.14511" lon="6.46141">
        <ele>414.704131</ele>
        <time>2022-06-06T08:04:30.935Z</time>
      </trkpt>
      <trkpt lat="48.14502" lon="6.46143">
        <ele>414.808422</ele>
        <time>2022-06-06T08:04:33.927Z</time>
      </trkpt>
      <trkpt lat="48.14493" lon="6.46144">
        <ele>414.909788</ele>
        <time>2022-06-06T08:04:36.930Z</time>
      </trkpt>
      <trkpt lat="48.14483" lon="6.46144">
        <ele>415.014286</ele>
        <time>2022-06-06T08:04:39.926Z</time>
      </trkpt>
      <trkpt lat="48.14473" lon="6.46147">
        <ele>415.131464</ele>
        <time>2022-06-06T08:04:43.939Z</time>
      </trkpt>
      <trkpt lat="48.14463" lon="6.46153">
        <ele>415.251366</ele>
        <time>2022-06-06T08:04:47.930Z</time>
      </trkpt>
      <trkpt lat="48.14454" lon="6.46163">
        <ele>415.383597</ele>
        <time>2022-06-06T08:04:51.929Z</time>
      </trkpt>
      <trkpt lat="48.14451" lon="6.46179">
        <ele>415.537936</ele>
        <time>2022-06-06T08:04:55.910Z</time>
      </trkpt>
      <trkpt lat="48.1445" lon="6.46195">
        <ele>415.716569</ele>
        <time>2022-06-06T08:04:58.927Z</time>
      </trkpt>
      <trkpt lat="48.14449" lon="6.46209">
        <ele>415.881238</ele>
        <time>2022-06-06T08:05:01.949Z</time>
      </trkpt>
      <trkpt lat="48.14448" lon="6.46225">
        <ele>416.065194</ele>
        <time>2022-06-06T08:05:04.948Z</time>
      </trkpt>
      <trkpt lat="48.14446" lon="6.4624">
        <ele>416.243285</ele>
        <time>2022-06-06T08:05:07.939Z</time>
      </trkpt>
      <trkpt lat="48.14443" lon="6.46255">
        <ele>416.431463</ele>
        <time>2022-06-06T08:05:10.933Z</time>
      </trkpt>
      <trkpt lat="48.14436" lon="6.46269">
        <ele>416.630448</ele>
        <time>2022-06-06T08:05:14.935Z</time>
      </trkpt>
      <trkpt lat="48.14428" lon="6.46283">
        <ele>416.838318</ele>
        <time>2022-06-06T08:05:18.925Z</time>
      </trkpt>
      <trkpt lat="48.14421" lon="6.46293">
        <ele>417.006261</ele>
        <time>2022-06-06T08:05:21.922Z</time>
      </trkpt>
      <trkpt lat="48.14414" lon="6.46302">
        <ele>417.173257</ele>
        <time>2022-06-06T08:05:24.919Z</time>
      </trkpt>
      <trkpt lat="48.14404" lon="6.46312">
        <ele>417.372887</ele>
        <time>2022-06-06T08:05:28.919Z</time>
      </trkpt>
      <trkpt lat="48.14394" lon="6.46321">
        <ele>417.57731</ele>
        <time>2022-06-06T08:05:32.938Z</time>
      </trkpt>
      <trkpt lat="48.14385" lon="6.4633">
        <ele>417.768055</ele>
        <time>2022-06-06T08:05:36.924Z</time>
      </trkpt>
      <trkpt lat="48.14376" lon="6.46338">
        <ele>417.952255</ele>
        <time>2022-06-06T08:05:40.927Z</time>
      </trkpt>
      <trkpt lat="48.14366" lon="6.4634">
        <ele>418.126415</ele>
        <time>2022-06-06T08:05:44.932Z</time>
      </trkpt>
      <trkpt lat="48.14357" lon="6.46337">
        <ele>418.284723</ele>
        <time>2022-06-06T08:05:47.900Z</time>
      </trkpt>
      <trkpt lat="48.14345" lon="6.46339">
        <ele>418.488404</ele>
        <time>2022-06-06T08:05:51.925Z</time>
      </trkpt>
      <trkpt lat="48.14335" lon="6.46343">
        <ele>418.95123</ele>
        <time>2022-06-06T08:05:55.917Z</time>
      </trkpt>
      <trkpt lat="48.14325" lon="6.46348">
        <ele>419.586063</ele>
        <time>2022-06-06T08:05:59.921Z</time>
      </trkpt>
      <trkpt lat="48.14316" lon="6.46353">
        <ele>420.163657</ele>
        <time>2022-06-06T08:06:03.933Z</time>
      </trkpt>
      <trkpt lat="48.14306" lon="6.46355">
        <ele>420.783843</ele>
        <time>2022-06-06T08:06:08.923Z</time>
      </trkpt>
      <trkpt lat="48.14296" lon="6.46358">
        <ele>421.411057</ele>
        <time>2022-06-06T08:06:13.917Z</time>
      </trkpt>
      <trkpt lat="48.14286" lon="6.46356">
        <ele>422.030439</ele>
        <time>2022-06-06T08:06:19.914Z</time>
      </trkpt>
      <trkpt lat="48.14275" lon="6.46352">
        <ele>422.704313</ele>
        <time>2022-06-06T08:06:24.929Z</time>
      </trkpt>
      <trkpt lat="48.14265" lon="6.46346">
        <ele>423.397677</ele>
        <time>2022-06-06T08:06:28.952Z</time>
      </trkpt>
      <trkpt lat="48.14254" lon="6.46342">
        <ele>424.080139</ele>
        <time>2022-06-06T08:06:32.918Z</time>
      </trkpt>
      <trkpt lat="48.14245" lon="6.46338">
        <ele>424.634658</ele>
        <time>2022-06-06T08:06:36.924Z</time>
      </trkpt>
      <trkpt lat="48.14234" lon="6.46333">
        <ele>425.332027</ele>
        <time>2022-06-06T08:06:41.944Z</time>
      </trkpt>
      <trkpt lat="48.14223" lon="6.46329">
        <ele>426.007456</ele>
        <time>2022-06-06T08:06:45.934Z</time>
      </trkpt>
      <trkpt lat="48.14211" lon="6.46329">
        <ele>426.734533</ele>
        <time>2022-06-06T08:06:49.926Z</time>
      </trkpt>
      <trkpt lat="48.14201" lon="6.46329">
        <ele>427.357509</ele>
        <time>2022-06-06T08:06:52.926Z</time>
      </trkpt>
      <trkpt lat="48.14192" lon="6.46331">
        <ele>427.911961</ele>
        <time>2022-06-06T08:06:55.931Z</time>
      </trkpt>
      <trkpt lat="48.14181" lon="6.46333">
        <ele>428.604674</ele>
        <time>2022-06-06T08:06:59.924Z</time>
      </trkpt>
      <trkpt lat="48.1417" lon="6.46336">
        <ele>429.270794</ele>
        <time>2022-06-06T08:07:03.938Z</time>
      </trkpt>
      <trkpt lat="48.14159" lon="6.46339">
        <ele>429.598248</ele>
        <time>2022-06-06T08:07:07.950Z</time>
      </trkpt>
      <trkpt lat="48.14148" lon="6.46344">
        <ele>429.686208</ele>
        <time>2022-06-06T08:07:11.934Z</time>
      </trkpt>
      <trkpt lat="48.14137" lon="6.46347">
        <ele>429.778807</ele>
        <time>2022-06-06T08:07:15.935Z</time>
      </trkpt>
      <trkpt lat="48.14128" lon="6.46351">
        <ele>429.849008</ele>
        <time>2022-06-06T08:07:18.926Z</time>
      </trkpt>
      <trkpt lat="48.14117" lon="6.46354">
        <ele>429.930344</ele>
        <time>2022-06-06T08:07:22.953Z</time>
      </trkpt>
      <trkpt lat="48.14106" lon="6.46356">
        <ele>430.017696</ele>
        <time>2022-06-06T08:07:26.926Z</time>
      </trkpt>
      <trkpt lat="48.14095" lon="6.46358">
        <ele>430.101847</ele>
        <time>2022-06-06T08:07:30.926Z</time>
      </trkpt>
      <trkpt lat="48.14084" lon="6.46362">
        <ele>430.19056</ele>
        <time>2022-06-06T08:07:34.919Z</time>
      </trkpt>
      <trkpt lat="48.14075" lon="6.46365">
        <ele>430.264787</ele>
        <time>2022-06-06T08:07:37.929Z</time>
      </trkpt>
      <trkpt lat="48.14066" lon="6.46371">
        <ele>430.338539</ele>
        <time>2022-06-06T08:07:40.939Z</time>
      </trkpt>
      <trkpt lat="48.14058" lon="6.4638">
        <ele>430.417602</ele>
        <time>2022-06-06T08:07:43.955Z</time>
      </trkpt>
      <trkpt lat="48.14052" lon="6.46395">
        <ele>430.505989</ele>
        <time>2022-06-06T08:07:47.942Z</time>
      </trkpt>
      <trkpt lat="48.14049" lon="6.46412">
        <ele>430.597205</ele>
        <time>2022-06-06T08:07:51.916Z</time>
      </trkpt>
      <trkpt lat="48.14051" lon="6.46425">
        <ele>430.667725</ele>
        <time>2022-06-06T08:07:54.925Z</time>
      </trkpt>
      <trkpt lat="48.14057" lon="6.46438">
        <ele>430.746613</ele>
        <time>2022-06-06T08:07:57.921Z</time>
      </trkpt>
      <trkpt lat="48.14065" lon="6.46449">
        <ele>430.826473</ele>
        <time>2022-06-06T08:08:00.934Z</time>
      </trkpt>
      <trkpt lat="48.14071" lon="6.46459">
        <ele>430.898778</ele>
        <time>2022-06-06T08:08:03.932Z</time>
      </trkpt>
      <trkpt lat="48.14077" lon="6.4647">
        <ele>431.00616</ele>
        <time>2022-06-06T08:08:06.934Z</time>
      </trkpt>
      <trkpt lat="48.14085" lon="6.46478">
        <ele>431.133867</ele>
        <time>2022-06-06T08:08:09.941Z</time>
      </trkpt>
      <trkpt lat="48.14092" lon="6.46488">
        <ele>431.263864</ele>
        <time>2022-06-06T08:08:12.910Z</time>
      </trkpt>
      <trkpt lat="48.14101" lon="6.46499">
        <ele>431.42553</ele>
        <time>2022-06-06T08:08:16.931Z</time>
      </trkpt>
      <trkpt lat="48.14108" lon="6.46508">
        <ele>431.55164</ele>
        <time>2022-06-06T08:08:19.921Z</time>
      </trkpt>
      <trkpt lat="48.14117" lon="6.46519">
        <ele>431.71054</ele>
        <time>2022-06-06T08:08:23.945Z</time>
      </trkpt>
      <trkpt lat="48.14124" lon="6.46528">
        <ele>431.836585</ele>
        <time>2022-06-06T08:08:26.928Z</time>
      </trkpt>
      <trkpt lat="48.14132" lon="6.46541">
        <ele>431.993117</ele>
        <time>2022-06-06T08:08:30.939Z</time>
      </trkpt>
      <trkpt lat="48.14137" lon="6.46552">
        <ele>432.118974</ele>
        <time>2022-06-06T08:08:33.923Z</time>
      </trkpt>
      <trkpt lat="48.14141" lon="6.46564">
        <ele>432.245323</ele>
        <time>2022-06-06T08:08:36.928Z</time>
      </trkpt>
      <trkpt lat="48.14146" lon="6.4658">
        <ele>432.404243</ele>
        <time>2022-06-06T08:08:40.944Z</time>
      </trkpt>
      <trkpt lat="48.14149" lon="6.46595">
        <ele>432.5529</ele>
        <time>2022-06-06T08:08:44.935Z</time>
      </trkpt>
      <trkpt lat="48.14148" lon="6.4661">
        <ele>432.687045</ele>
        <time>2022-06-06T08:08:48.933Z</time>
      </trkpt>
      <trkpt lat="48.14137" lon="6.46614">
        <ele>432.834578</ele>
        <time>2022-06-06T08:08:52.926Z</time>
      </trkpt>
      <trkpt lat="48.14134" lon="6.4663">
        <ele>432.992916</ele>
        <time>2022-06-06T08:08:56.930Z</time>
      </trkpt>
      <trkpt lat="48.14131" lon="6.46646">
        <ele>433.138024</ele>
        <time>2022-06-06T08:09:00.943Z</time>
      </trkpt>
      <trkpt lat="48.14129" lon="6.4666">
        <ele>433.270559</ele>
        <time>2022-06-06T08:09:04.943Z</time>
      </trkpt>
      <trkpt lat="48.14124" lon="6.46673">
        <ele>433.405321</ele>
        <time>2022-06-06T08:09:08.931Z</time>
      </trkpt>
      <trkpt lat="48.14117" lon="6.46683">
        <ele>433.737616</ele>
        <time>2022-06-06T08:09:12.913Z</time>
      </trkpt>
      <trkpt lat="48.14107" lon="6.46691">
        <ele>434.092005</ele>
        <time>2022-06-06T08:09:17.930Z</time>
      </trkpt>
      <trkpt lat="48.14098" lon="6.46697">
        <ele>434.424495</ele>
        <time>2022-06-06T08:09:22.935Z</time>
      </trkpt>
      <trkpt lat="48.1409" lon="6.46708">
        <ele>434.782593</ele>
        <time>2022-06-06T08:09:27.928Z</time>
      </trkpt>
      <trkpt lat="48.14085" lon="6.46722">
        <ele>435.128839</ele>
        <time>2022-06-06T08:09:31.921Z</time>
      </trkpt>
      <trkpt lat="48.14082" lon="6.46735">
        <ele>435.436073</ele>
        <time>2022-06-06T08:09:34.924Z</time>
      </trkpt>
      <trkpt lat="48.14083" lon="6.46752">
        <ele>435.813598</ele>
        <time>2022-06-06T08:09:38.903Z</time>
      </trkpt>
      <trkpt lat="48.14087" lon="6.46768">
        <ele>436.183169</ele>
        <time>2022-06-06T08:09:42.931Z</time>
      </trkpt>
      <trkpt lat="48.14088" lon="6.46784">
        <ele>436.537071</ele>
        <time>2022-06-06T08:09:46.918Z</time>
      </trkpt>
      <trkpt lat="48.14091" lon="6.46802">
        <ele>436.929631</ele>
        <time>2022-06-06T08:09:50.914Z</time>
      </trkpt>
      <trkpt lat="48.14089" lon="6.46818">
        <ele>437.290556</ele>
        <time>2022-06-06T08:09:54.914Z</time>
      </trkpt>
      <trkpt lat="48.14084" lon="6.46832">
        <ele>437.648117</ele>
        <time>2022-06-06T08:09:58.907Z</time>
      </trkpt>
      <trkpt lat="48.14076" lon="6.46845">
        <ele>438.028003</ele>
        <time>2022-06-06T08:10:02.922Z</time>
      </trkpt>
      <trkpt lat="48.14068" lon="6.46856">
        <ele>438.390552</ele>
        <time>2022-06-06T08:10:06.909Z</time>
      </trkpt>
      <trkpt lat="48.14062" lon="6.46866">
        <ele>438.690373</ele>
        <time>2022-06-06T08:10:09.923Z</time>
      </trkpt>
      <trkpt lat="48.14054" lon="6.46875">
        <ele>439.015178</ele>
        <time>2022-06-06T08:10:12.911Z</time>
      </trkpt>
      <trkpt lat="48.14044" lon="6.46881">
        <ele>439.401192</ele>
        <time>2022-06-06T08:10:15.914Z</time>
      </trkpt>
      <trkpt lat="48.14032" lon="6.46884">
        <ele>440.033436</ele>
        <time>2022-06-06T08:10:19.919Z</time>
      </trkpt>
      <trkpt lat="48.14025" lon="6.46894">
        <ele>440.562199</ele>
        <time>2022-06-06T08:10:25.919Z</time>
      </trkpt>
      <trkpt lat="48.14021" lon="6.46908">
        <ele>441.137212</ele>
        <time>2022-06-06T08:10:30.916Z</time>
      </trkpt>
      <trkpt lat="48.14016" lon="6.46924">
        <ele>441.759579</ele>
        <time>2022-06-06T08:10:34.918Z</time>
      </trkpt>
      <trkpt lat="48.14011" lon="6.46934">
        <ele>442.247796</ele>
        <time>2022-06-06T08:10:38.947Z</time>
      </trkpt>
      <trkpt lat="48.14001" lon="6.46944">
        <ele>442.850703</ele>
        <time>2022-06-06T08:10:43.923Z</time>
      </trkpt>
      <trkpt lat="48.13992" lon="6.46949">
        <ele>443.382715</ele>
        <time>2022-06-06T08:10:47.899Z</time>
      </trkpt>
      <trkpt lat="48.13983" lon="6.46951">
        <ele>443.871029</ele>
        <time>2022-06-06T08:10:51.929Z</time>
      </trkpt>
      <trkpt lat="48.13974" lon="6.46956">
        <ele>444.435581</ele>
        <time>2022-06-06T08:10:56.931Z</time>
      </trkpt>
      <trkpt lat="48.13964" lon="6.46961">
        <ele>444.984608</ele>
        <time>2022-06-06T08:11:01.907Z</time>
      </trkpt>
      <trkpt lat="48.13954" lon="6.46965">
        <ele>445.541811</ele>
        <time>2022-06-06T08:11:06.918Z</time>
      </trkpt>
      <trkpt lat="48.13945" lon="6.46968">
        <ele>446.034065</ele>
        <time>2022-06-06T08:11:10.930Z</time>
      </trkpt>
      <trkpt lat="48.13936" lon="6.4697">
        <ele>446.552437</ele>
        <time>2022-06-06T08:11:14.918Z</time>
      </trkpt>
      <trkpt lat="48.13926" lon="6.46972">
        <ele>447.111662</ele>
        <time>2022-06-06T08:11:18.910Z</time>
      </trkpt>
      <trkpt lat="48.13915" lon="6.46975">
        <ele>447.698092</ele>
        <time>2022-06-06T08:11:22.928Z</time>
      </trkpt>
      <trkpt lat="48.13905" lon="6.46978">
        <ele>448.280584</ele>
        <time>2022-06-06T08:11:26.914Z</time>
      </trkpt>
      <trkpt lat="48.13893" lon="6.4698">
        <ele>448.909155</ele>
        <time>2022-06-06T08:11:30.912Z</time>
      </trkpt>
      <trkpt lat="48.13882" lon="6.46983">
        <ele>449.219811</ele>
        <time>2022-06-06T08:11:34.931Z</time>
      </trkpt>
      <trkpt lat="48.13873" lon="6.46983">
        <ele>449.351099</ele>
        <time>2022-06-06T08:11:37.928Z</time>
      </trkpt>
      <trkpt lat="48.13863" lon="6.46979">
        <ele>449.513366</ele>
        <time>2022-06-06T08:11:40.904Z</time>
      </trkpt>
      <trkpt lat="48.13853" lon="6.46975">
        <ele>449.656438</ele>
        <time>2022-06-06T08:11:43.932Z</time>
      </trkpt>
      <trkpt lat="48.13843" lon="6.4697">
        <ele>449.810829</ele>
        <time>2022-06-06T08:11:46.909Z</time>
      </trkpt>
      <trkpt lat="48.13834" lon="6.46961">
        <ele>449.968273</ele>
        <time>2022-06-06T08:11:50.919Z</time>
      </trkpt>
      <trkpt lat="48.13826" lon="6.46954">
        <ele>450.105146</ele>
        <time>2022-06-06T08:11:54.909Z</time>
      </trkpt>
      <trkpt lat="48.13817" lon="6.46947">
        <ele>450.247087</ele>
        <time>2022-06-06T08:11:58.923Z</time>
      </trkpt>
      <trkpt lat="48.13808" lon="6.46937">
        <ele>450.416804</ele>
        <time>2022-06-06T08:12:02.917Z</time>
      </trkpt>
      <trkpt lat="48.138" lon="6.46927">
        <ele>450.574947</ele>
        <time>2022-06-06T08:12:06.918Z</time>
      </trkpt>
      <trkpt lat="48.13792" lon="6.46918">
        <ele>450.716774</ele>
        <time>2022-06-06T08:12:09.916Z</time>
      </trkpt>
      <trkpt lat="48.13784" lon="6.46905">
        <ele>450.885057</ele>
        <time>2022-06-06T08:12:13.910Z</time>
      </trkpt>
      <trkpt lat="48.13777" lon="6.46893">
        <ele>451.042131</ele>
        <time>2022-06-06T08:12:17.926Z</time>
      </trkpt>
      <trkpt lat="48.13769" lon="6.46881">
        <ele>451.205079</ele>
        <time>2022-06-06T08:12:21.908Z</time>
      </trkpt>
      <trkpt lat="48.13763" lon="6.46867">
        <ele>451.369493</ele>
        <time>2022-06-06T08:12:25.923Z</time>
      </trkpt>
      <trkpt lat="48.13758" lon="6.46855">
        <ele>451.507948</ele>
        <time>2022-06-06T08:12:28.912Z</time>
      </trkpt>
      <trkpt lat="48.13753" lon="6.46842">
        <ele>451.654732</ele>
        <time>2022-06-06T08:12:32.923Z</time>
      </trkpt>
      <trkpt lat="48.13748" lon="6.46829">
        <ele>451.761452</ele>
        <time>2022-06-06T08:12:35.909Z</time>
      </trkpt>
      <trkpt lat="48.13742" lon="6.46818">
        <ele>451.811253</ele>
        <time>2022-06-06T08:12:38.941Z</time>
      </trkpt>
      <trkpt lat="48.13739" lon="6.46803">
        <ele>451.865913</ele>
        <time>2022-06-06T08:12:41.922Z</time>
      </trkpt>
      <trkpt lat="48.13736" lon="6.46789">
        <ele>451.917359</ele>
        <time>2022-06-06T08:12:44.915Z</time>
      </trkpt>
      <trkpt lat="48.13733" lon="6.46774">
        <ele>451.973357</ele>
        <time>2022-06-06T08:12:47.912Z</time>
      </trkpt>
      <trkpt lat="48.13731" lon="6.46759">
        <ele>452.028091</ele>
        <time>2022-06-06T08:12:50.922Z</time>
      </trkpt>
      <trkpt lat="48.13729" lon="6.46746">
        <ele>452.076105</ele>
        <time>2022-06-06T08:12:53.905Z</time>
      </trkpt>
      <trkpt lat="48.13724" lon="6.4673">
        <ele>452.139059</ele>
        <time>2022-06-06T08:12:57.895Z</time>
      </trkpt>
      <trkpt lat="48.13717" lon="6.46717">
        <ele>452.20021</ele>
        <time>2022-06-06T08:13:01.907Z</time>
      </trkpt>
      <trkpt lat="48.1371" lon="6.46705">
        <ele>452.254344</ele>
        <time>2022-06-06T08:13:05.908Z</time>
      </trkpt>
      <trkpt lat="48.13702" lon="6.46696">
        <ele>452.309301</ele>
        <time>2022-06-06T08:13:08.908Z</time>
      </trkpt>
      <trkpt lat="48.13695" lon="6.46686">
        <ele>452.362677</ele>
        <time>2022-06-06T08:13:11.944Z</time>
      </trkpt>
      <trkpt lat="48.13685" lon="6.46675">
        <ele>452.428283</ele>
        <time>2022-06-06T08:13:15.913Z</time>
      </trkpt>
      <trkpt lat="48.13677" lon="6.46666">
        <ele>452.48021</ele>
        <time>2022-06-06T08:13:18.916Z</time>
      </trkpt>
      <trkpt lat="48.13669" lon="6.46658">
        <ele>452.531094</ele>
        <time>2022-06-06T08:13:21.909Z</time>
      </trkpt>
      <trkpt lat="48.13661" lon="6.46651">
        <ele>452.582213</ele>
        <time>2022-06-06T08:13:25.913Z</time>
      </trkpt>
      <trkpt lat="48.13652" lon="6.46646">
        <ele>452.634294</ele>
        <time>2022-06-06T08:13:29.911Z</time>
      </trkpt>
      <trkpt lat="48.13641" lon="6.46642">
        <ele>452.694058</ele>
        <time>2022-06-06T08:13:32.926Z</time>
      </trkpt>
      <trkpt lat="48.13631" lon="6.46641">
        <ele>452.9728</ele>
        <time>2022-06-06T08:13:35.914Z</time>
      </trkpt>
      <trkpt lat="48.1362" lon="6.46643">
        <ele>453.327585</ele>
        <time>2022-06-06T08:13:39.902Z</time>
      </trkpt>
      <trkpt lat="48.1361" lon="6.4665">
        <ele>453.685945</ele>
        <time>2022-06-06T08:13:43.926Z</time>
      </trkpt>
      <trkpt lat="48.13599" lon="6.46654">
        <ele>454.052655</ele>
        <time>2022-06-06T08:13:47.912Z</time>
      </trkpt>
      <trkpt lat="48.13589" lon="6.46657">
        <ele>454.399255</ele>
        <time>2022-06-06T08:13:51.904Z</time>
      </trkpt>
      <trkpt lat="48.13579" lon="6.46659">
        <ele>454.715821</ele>
        <time>2022-06-06T08:13:55.900Z</time>
      </trkpt>
      <trkpt lat="48.1357" lon="6.46661">
        <ele>455.016079</ele>
        <time>2022-06-06T08:13:58.913Z</time>
      </trkpt>
      <trkpt lat="48.13558" lon="6.46662">
        <ele>455.398463</ele>
        <time>2022-06-06T08:14:02.911Z</time>
      </trkpt>
      <trkpt lat="48.13547" lon="6.46663">
        <ele>455.752775</ele>
        <time>2022-06-06T08:14:06.917Z</time>
      </trkpt>
      <trkpt lat="48.13536" lon="6.46667">
        <ele>456.111476</ele>
        <time>2022-06-06T08:14:10.925Z</time>
      </trkpt>
      <trkpt lat="48.13526" lon="6.46668">
        <ele>456.4465</ele>
        <time>2022-06-06T08:14:14.929Z</time>
      </trkpt>
      <trkpt lat="48.13516" lon="6.4667">
        <ele>456.75026</ele>
        <time>2022-06-06T08:14:18.913Z</time>
      </trkpt>
      <trkpt lat="48.13507" lon="6.46671">
        <ele>457.057678</ele>
        <time>2022-06-06T08:14:22.903Z</time>
      </trkpt>
      <trkpt lat="48.13496" lon="6.46672">
        <ele>457.401066</ele>
        <time>2022-06-06T08:14:26.904Z</time>
      </trkpt>
      <trkpt lat="48.13487" lon="6.46669">
        <ele>457.704585</ele>
        <time>2022-06-06T08:14:30.909Z</time>
      </trkpt>
      <trkpt lat="48.13479" lon="6.46664">
        <ele>458.002829</ele>
        <time>2022-06-06T08:14:33.915Z</time>
      </trkpt>
      <trkpt lat="48.13469" lon="6.46657">
        <ele>458.360523</ele>
        <time>2022-06-06T08:14:37.913Z</time>
      </trkpt>
      <trkpt lat="48.1346" lon="6.46649">
        <ele>458.466012</ele>
        <time>2022-06-06T08:14:41.912Z</time>
      </trkpt>
      <trkpt lat="48.1345" lon="6.46639">
        <ele>458.360922</ele>
        <time>2022-06-06T08:14:45.898Z</time>
      </trkpt>
      <trkpt lat="48.13442" lon="6.46631">
        <ele>458.270957</ele>
        <time>2022-06-06T08:14:48.903Z</time>
      </trkpt>
      <trkpt lat="48.13434" lon="6.46625">
        <ele>458.187411</ele>
        <time>2022-06-06T08:14:51.937Z</time>
      </trkpt>
      <trkpt lat="48.13425" lon="6.46619">
        <ele>458.102178</ele>
        <time>2022-06-06T08:14:54.928Z</time>
      </trkpt>
      <trkpt lat="48.13418" lon="6.46612">
        <ele>458.018864</ele>
        <time>2022-06-06T08:14:57.917Z</time>
      </trkpt>
      <trkpt lat="48.1341" lon="6.466">
        <ele>457.921571</ele>
        <time>2022-06-06T08:15:01.913Z</time>
      </trkpt>
      <trkpt lat="48.13404" lon="6.46589">
        <ele>457.832669</ele>
        <time>2022-06-06T08:15:05.932Z</time>
      </trkpt>
      <trkpt lat="48.13396" lon="6.46575">
        <ele>457.724835</ele>
        <time>2022-06-06T08:15:09.900Z</time>
      </trkpt>
      <trkpt lat="48.1339" lon="6.46564">
        <ele>457.636679</ele>
        <time>2022-06-06T08:15:12.909Z</time>
      </trkpt>
      <trkpt lat="48.13385" lon="6.46552">
        <ele>457.546997</ele>
        <time>2022-06-06T08:15:15.894Z</time>
      </trkpt>
      <trkpt lat="48.1338" lon="6.46539">
        <ele>457.45818</ele>
        <time>2022-06-06T08:15:18.918Z</time>
      </trkpt>
      <trkpt lat="48.13374" lon="6.46524">
        <ele>457.352193</ele>
        <time>2022-06-06T08:15:22.928Z</time>
      </trkpt>
      <trkpt lat="48.13369" lon="6.4651">
        <ele>457.253862</ele>
        <time>2022-06-06T08:15:26.905Z</time>
      </trkpt>
      <trkpt lat="48.13367" lon="6.46496">
        <ele>457.169776</ele>
        <time>2022-06-06T08:15:29.921Z</time>
      </trkpt>
      <trkpt lat="48.13366" lon="6.46482">
        <ele>457.082601</ele>
        <time>2022-06-06T08:15:32.896Z</time>
      </trkpt>
      <trkpt lat="48.13364" lon="6.46468">
        <ele>456.993235</ele>
        <time>2022-06-06T08:15:35.915Z</time>
      </trkpt>
      <trkpt lat="48.13364" lon="6.4645">
        <ele>456.882993</ele>
        <time>2022-06-06T08:15:39.905Z</time>
      </trkpt>
      <trkpt lat="48.13365" lon="6.46435">
        <ele>457.147863</ele>
        <time>2022-06-06T08:15:42.912Z</time>
      </trkpt>
      <trkpt lat="48.13366" lon="6.46418">
        <ele>457.473631</ele>
        <time>2022-06-06T08:15:46.917Z</time>
      </trkpt>
      <trkpt lat="48.13367" lon="6.46404">
        <ele>457.758844</ele>
        <time>2022-06-06T08:15:49.912Z</time>
      </trkpt>
      <trkpt lat="48.13368" lon="6.46389">
        <ele>458.059407</ele>
        <time>2022-06-06T08:15:52.908Z</time>
      </trkpt>
      <trkpt lat="48.13367" lon="6.46374">
        <ele>458.364862</ele>
        <time>2022-06-06T08:15:55.890Z</time>
      </trkpt>
      <trkpt lat="48.13359" lon="6.4636">
        <ele>458.726576</ele>
        <time>2022-06-06T08:15:59.911Z</time>
      </trkpt>
      <trkpt lat="48.1335" lon="6.46353">
        <ele>459.045202</ele>
        <time>2022-06-06T08:16:02.906Z</time>
      </trkpt>
      <trkpt lat="48.1334" lon="6.46348">
        <ele>459.345701</ele>
        <time>2022-06-06T08:16:07.942Z</time>
      </trkpt>
      <trkpt lat="48.13331" lon="6.4634">
        <ele>459.656619</ele>
        <time>2022-06-06T08:16:11.927Z</time>
      </trkpt>
      <trkpt lat="48.13321" lon="6.46332">
        <ele>459.996642</ele>
        <time>2022-06-06T08:16:15.925Z</time>
      </trkpt>
      <trkpt lat="48.13313" lon="6.46327">
        <ele>460.263954</ele>
        <time>2022-06-06T08:16:18.907Z</time>
      </trkpt>
      <trkpt lat="48.13303" lon="6.46319">
        <ele>460.596336</ele>
        <time>2022-06-06T08:16:22.924Z</time>
      </trkpt>
      <trkpt lat="48.13294" lon="6.46311">
        <ele>460.899885</ele>
        <time>2022-06-06T08:16:25.903Z</time>
      </trkpt>
      <trkpt lat="48.13286" lon="6.46301">
        <ele>461.22084</ele>
        <time>2022-06-06T08:16:29.888Z</time>
      </trkpt>
      <trkpt lat="48.13279" lon="6.46289">
        <ele>461.530219</ele>
        <time>2022-06-06T08:16:33.933Z</time>
      </trkpt>
      <trkpt lat="48.13272" lon="6.46278">
        <ele>461.848035</ele>
        <time>2022-06-06T08:16:38.910Z</time>
      </trkpt>
      <trkpt lat="48.13264" lon="6.46267">
        <ele>462.166348</ele>
        <time>2022-06-06T08:16:42.908Z</time>
      </trkpt>
      <trkpt lat="48.13257" lon="6.46258">
        <ele>462.242657</ele>
        <time>2022-06-06T08:16:46.927Z</time>
      </trkpt>
      <trkpt lat="48.1325" lon="6.46247">
        <ele>462.242333</ele>
        <time>2022-06-06T08:16:50.911Z</time>
      </trkpt>
      <trkpt lat="48.13242" lon="6.46235">
        <ele>462.24197</ele>
        <time>2022-06-06T08:16:54.924Z</time>
      </trkpt>
      <trkpt lat="48.13235" lon="6.46222">
        <ele>462.241618</ele>
        <time>2022-06-06T08:16:58.911Z</time>
      </trkpt>
      <trkpt lat="48.13229" lon="6.46209">
        <ele>462.241266</ele>
        <time>2022-06-06T08:17:02.905Z</time>
      </trkpt>
      <trkpt lat="48.13224" lon="6.46198">
        <ele>462.240969</ele>
        <time>2022-06-06T08:17:05.914Z</time>
      </trkpt>
      <trkpt lat="48.13218" lon="6.46183">
        <ele>462.240624</ele>
        <time>2022-06-06T08:17:09.927Z</time>
      </trkpt>
      <trkpt lat="48.13214" lon="6.46169">
        <ele>462.240282</ele>
        <time>2022-06-06T08:17:13.925Z</time>
      </trkpt>
      <trkpt lat="48.13208" lon="6.46154">
        <ele>462.239903</ele>
        <time>2022-06-06T08:17:17.904Z</time>
      </trkpt>
      <trkpt lat="48.13202" lon="6.46141">
        <ele>462.239574</ele>
        <time>2022-06-06T08:17:20.914Z</time>
      </trkpt>
      <trkpt lat="48.13198" lon="6.46127">
        <ele>462.239244</ele>
        <time>2022-06-06T08:17:23.899Z</time>
      </trkpt>
      <trkpt lat="48.13196" lon="6.46114">
        <ele>462.238952</ele>
        <time>2022-06-06T08:17:26.914Z</time>
      </trkpt>
      <trkpt lat="48.13192" lon="6.46097">
        <ele>462.238577</ele>
        <time>2022-06-06T08:17:30.918Z</time>
      </trkpt>
      <trkpt lat="48.13191" lon="6.46081">
        <ele>462.238226</ele>
        <time>2022-06-06T08:17:34.917Z</time>
      </trkpt>
      <trkpt lat="48.13189" lon="6.46064">
        <ele>462.237866</ele>
        <time>2022-06-06T08:17:38.926Z</time>
      </trkpt>
      <trkpt lat="48.13186" lon="6.46047">
        <ele>462.237494</ele>
        <time>2022-06-06T08:17:42.928Z</time>
      </trkpt>
      <trkpt lat="48.13185" lon="6.46033">
        <ele>462.237191</ele>
        <time>2022-06-06T08:17:45.923Z</time>
      </trkpt>
      <trkpt lat="48.13183" lon="6.46019">
        <ele>462.259349</ele>
        <time>2022-06-06T08:17:48.916Z</time>
      </trkpt>
      <trkpt lat="48.13183" lon="6.46004">
        <ele>462.290932</ele>
        <time>2022-06-06T08:17:51.915Z</time>
      </trkpt>
      <trkpt lat="48.13184" lon="6.4599">
        <ele>462.323453</ele>
        <time>2022-06-06T08:17:54.914Z</time>
      </trkpt>
      <trkpt lat="48.13182" lon="6.45976">
        <ele>462.354382</ele>
        <time>2022-06-06T08:17:57.942Z</time>
      </trkpt>
      <trkpt lat="48.13181" lon="6.45961">
        <ele>462.386674</ele>
        <time>2022-06-06T08:18:00.928Z</time>
      </trkpt>
      <trkpt lat="48.1318" lon="6.45947">
        <ele>462.417511</ele>
        <time>2022-06-06T08:18:03.914Z</time>
      </trkpt>
      <trkpt lat="48.1318" lon="6.45934">
        <ele>462.447147</ele>
        <time>2022-06-06T08:18:06.917Z</time>
      </trkpt>
      <trkpt lat="48.13181" lon="6.45919">
        <ele>462.479995</ele>
        <time>2022-06-06T08:18:10.922Z</time>
      </trkpt>
      <trkpt lat="48.13182" lon="6.45904">
        <ele>462.512811</ele>
        <time>2022-06-06T08:18:14.913Z</time>
      </trkpt>
      <trkpt lat="48.13185" lon="6.45888">
        <ele>462.550449</ele>
        <time>2022-06-06T08:18:18.898Z</time>
      </trkpt>
      <trkpt lat="48.13187" lon="6.45871">
        <ele>462.588409</ele>
        <time>2022-06-06T08:18:22.912Z</time>
      </trkpt>
      <trkpt lat="48.13189" lon="6.45854">
        <ele>462.626199</ele>
        <time>2022-06-06T08:18:26.904Z</time>
      </trkpt>
      <trkpt lat="48.13189" lon="6.4584">
        <ele>462.656937</ele>
        <time>2022-06-06T08:18:29.906Z</time>
      </trkpt>
      <trkpt lat="48.13187" lon="6.45825">
        <ele>462.691895</ele>
        <time>2022-06-06T08:18:33.922Z</time>
      </trkpt>
      <trkpt lat="48.13179" lon="6.45812">
        <ele>462.728739</ele>
        <time>2022-06-06T08:18:37.904Z</time>
      </trkpt>
      <trkpt lat="48.13172" lon="6.45804">
        <ele>462.759322</ele>
        <time>2022-06-06T08:18:40.916Z</time>
      </trkpt>
      <trkpt lat="48.13164" lon="6.45797">
        <ele>462.789431</ele>
        <time>2022-06-06T08:18:43.919Z</time>
      </trkpt>
      <trkpt lat="48.13154" lon="6.45788">
        <ele>462.829051</ele>
        <time>2022-06-06T08:18:47.902Z</time>
      </trkpt>
      <trkpt lat="48.13146" lon="6.45781">
        <ele>463.016408</ele>
        <time>2022-06-06T08:18:50.902Z</time>
      </trkpt>
      <trkpt lat="48.13137" lon="6.45774">
        <ele>463.236297</ele>
        <time>2022-06-06T08:18:53.914Z</time>
      </trkpt>
      <trkpt lat="48.13128" lon="6.45765">
        <ele>463.489269</ele>
        <time>2022-06-06T08:18:57.916Z</time>
      </trkpt>
      <trkpt lat="48.1312" lon="6.45756">
        <ele>463.709879</ele>
        <time>2022-06-06T08:19:00.920Z</time>
      </trkpt>
      <trkpt lat="48.13114" lon="6.45745">
        <ele>463.921883</ele>
        <time>2022-06-06T08:19:03.925Z</time>
      </trkpt>
      <trkpt lat="48.13106" lon="6.45732">
        <ele>464.180335</ele>
        <time>2022-06-06T08:19:07.917Z</time>
      </trkpt>
      <trkpt lat="48.131" lon="6.45719">
        <ele>464.423038</ele>
        <time>2022-06-06T08:19:11.925Z</time>
      </trkpt>
      <trkpt lat="48.13093" lon="6.45705">
        <ele>464.685011</ele>
        <time>2022-06-06T08:19:15.905Z</time>
      </trkpt>
      <trkpt lat="48.13087" lon="6.45691">
        <ele>464.927731</ele>
        <time>2022-06-06T08:19:19.908Z</time>
      </trkpt>
      <trkpt lat="48.13081" lon="6.4568">
        <ele>465.146344</ele>
        <time>2022-06-06T08:19:23.916Z</time>
      </trkpt>
      <trkpt lat="48.13072" lon="6.45675">
        <ele>465.352368</ele>
        <time>2022-06-06T08:19:26.916Z</time>
      </trkpt>
      <trkpt lat="48.13062" lon="6.45673">
        <ele>465.584263</ele>
        <time>2022-06-06T08:19:29.915Z</time>
      </trkpt>
      <trkpt lat="48.13053" lon="6.45672">
        <ele>465.788449</ele>
        <time>2022-06-06T08:19:32.915Z</time>
      </trkpt>
      <trkpt lat="48.13046" lon="6.45682">
        <ele>466.003762</ele>
        <time>2022-06-06T08:19:36.912Z</time>
      </trkpt>
      <trkpt lat="48.13038" lon="6.45694">
        <ele>466.252727</ele>
        <time>2022-06-06T08:19:40.911Z</time>
      </trkpt>
      <trkpt lat="48.13031" lon="6.45707">
        <ele>466.504879</ele>
        <time>2022-06-06T08:19:44.905Z</time>
      </trkpt>
      <trkpt lat="48.13025" lon="6.45722">
        <ele>466.761146</ele>
        <time>2022-06-06T08:19:48.909Z</time>
      </trkpt>
      <trkpt lat="48.13019" lon="6.45737">
        <ele>467.372056</ele>
        <time>2022-06-06T08:19:52.911Z</time>
      </trkpt>
      <trkpt lat="48.13008" lon="6.45743">
        <ele>468.266675</ele>
        <time>2022-06-06T08:19:56.919Z</time>
      </trkpt>
      <trkpt lat="48.12997" lon="6.45745">
        <ele>469.095502</ele>
        <time>2022-06-06T08:20:00.912Z</time>
      </trkpt>
      <trkpt lat="48.12986" lon="6.45744">
        <ele>469.8815</ele>
        <time>2022-06-06T08:20:04.902Z</time>
      </trkpt>
      <trkpt lat="48.12977" lon="6.45742">
        <ele>470.589176</ele>
        <time>2022-06-06T08:20:08.921Z</time>
      </trkpt>
      <trkpt lat="48.12967" lon="6.45741">
        <ele>471.306872</ele>
        <time>2022-06-06T08:20:12.924Z</time>
      </trkpt>
      <trkpt lat="48.12956" lon="6.45743">
        <ele>472.082418</ele>
        <time>2022-06-06T08:20:17.922Z</time>
      </trkpt>
      <trkpt lat="48.12946" lon="6.45741">
        <ele>472.894599</ele>
        <time>2022-06-06T08:20:21.919Z</time>
      </trkpt>
      <trkpt lat="48.12935" lon="6.45736">
        <ele>473.708838</ele>
        <time>2022-06-06T08:20:26.919Z</time>
      </trkpt>
      <trkpt lat="48.12924" lon="6.45731">
        <ele>474.543263</ele>
        <time>2022-06-06T08:20:30.919Z</time>
      </trkpt>
      <trkpt lat="48.12913" lon="6.45728">
        <ele>475.368692</ele>
        <time>2022-06-06T08:20:34.932Z</time>
      </trkpt>
      <trkpt lat="48.12904" lon="6.45721">
        <ele>476.107071</ele>
        <time>2022-06-06T08:20:38.903Z</time>
      </trkpt>
      <trkpt lat="48.12894" lon="6.45719">
        <ele>476.877428</ele>
        <time>2022-06-06T08:20:43.889Z</time>
      </trkpt>
      <trkpt lat="48.12884" lon="6.45716">
        <ele>477.64356</ele>
        <time>2022-06-06T08:20:48.921Z</time>
      </trkpt>
      <trkpt lat="48.12875" lon="6.45708">
        <ele>478.39342</ele>
        <time>2022-06-06T08:20:53.927Z</time>
      </trkpt>
      <trkpt lat="48.12869" lon="6.45696">
        <ele>479.153264</ele>
        <time>2022-06-06T08:20:59.912Z</time>
      </trkpt>
      <trkpt lat="48.12861" lon="6.45686">
        <ele>479.90517</ele>
        <time>2022-06-06T08:21:05.937Z</time>
      </trkpt>
      <trkpt lat="48.12854" lon="6.45674">
        <ele>481.328509</ele>
        <time>2022-06-06T08:21:11.920Z</time>
      </trkpt>
      <trkpt lat="48.12847" lon="6.45662">
        <ele>483.012813</ele>
        <time>2022-06-06T08:21:17.910Z</time>
      </trkpt>
      <trkpt lat="48.12842" lon="6.4565">
        <ele>484.583456</ele>
        <time>2022-06-06T08:21:22.908Z</time>
      </trkpt>
      <trkpt lat="48.12837" lon="6.45636">
        <ele>486.291079</ele>
        <time>2022-06-06T08:21:27.905Z</time>
      </trkpt>
      <trkpt lat="48.12834" lon="6.45623">
        <ele>487.789477</ele>
        <time>2022-06-06T08:21:32.924Z</time>
      </trkpt>
      <trkpt lat="48.12831" lon="6.45608">
        <ele>489.429042</ele>
        <time>2022-06-06T08:21:38.916Z</time>
      </trkpt>
      <trkpt lat="48.1283" lon="6.45593">
        <ele>491.045847</ele>
        <time>2022-06-06T08:21:44.897Z</time>
      </trkpt>
      <trkpt lat="48.12829" lon="6.4558">
        <ele>492.492537</ele>
        <time>2022-06-06T08:21:50.895Z</time>
      </trkpt>
      <trkpt lat="48.12831" lon="6.45566">
        <ele>494.032432</ele>
        <time>2022-06-06T08:21:55.917Z</time>
      </trkpt>
      <trkpt lat="48.12834" lon="6.45552">
        <ele>495.570362</ele>
        <time>2022-06-06T08:22:01.915Z</time>
      </trkpt>
      <trkpt lat="48.12835" lon="6.45538">
        <ele>497.09113</ele>
        <time>2022-06-06T08:22:06.893Z</time>
      </trkpt>
      <trkpt lat="48.12835" lon="6.45522">
        <ele>498.753556</ele>
        <time>2022-06-06T08:22:12.920Z</time>
      </trkpt>
      <trkpt lat="48.12837" lon="6.45508">
        <ele>500.276953</ele>
        <time>2022-06-06T08:22:17.914Z</time>
      </trkpt>
      <trkpt lat="48.12837" lon="6.45494">
        <ele>501.778842</ele>
        <time>2022-06-06T08:22:23.919Z</time>
      </trkpt>
      <trkpt lat="48.12839" lon="6.45481">
        <ele>503.250475</ele>
        <time>2022-06-06T08:22:28.895Z</time>
      </trkpt>
      <trkpt lat="48.12841" lon="6.45467">
        <ele>504.7633</ele>
        <time>2022-06-06T08:22:33.911Z</time>
      </trkpt>
      <trkpt lat="48.12838" lon="6.45453">
        <ele>506.396301</ele>
        <time>2022-06-06T08:22:39.914Z</time>
      </trkpt>
      <trkpt lat="48.12837" lon="6.45437">
        <ele>508.045124</ele>
        <time>2022-06-06T08:22:45.916Z</time>
      </trkpt>
      <trkpt lat="48.12836" lon="6.45423">
        <ele>509.394664</ele>
        <time>2022-06-06T08:22:50.919Z</time>
      </trkpt>
      <trkpt lat="48.12835" lon="6.45407">
        <ele>510.428864</ele>
        <time>2022-06-06T08:22:55.924Z</time>
      </trkpt>
      <trkpt lat="48.12835" lon="6.45393">
        <ele>511.295716</ele>
        <time>2022-06-06T08:23:00.907Z</time>
      </trkpt>
      <trkpt lat="48.12835" lon="6.45379">
        <ele>512.216736</ele>
        <time>2022-06-06T08:23:05.919Z</time>
      </trkpt>
      <trkpt lat="48.12833" lon="6.45364">
        <ele>513.139805</ele>
        <time>2022-06-06T08:23:10.902Z</time>
      </trkpt>
      <trkpt lat="48.1283" lon="6.45351">
        <ele>514.053341</ele>
        <time>2022-06-06T08:23:15.933Z</time>
      </trkpt>
      <trkpt lat="48.12827" lon="6.45337">
        <ele>515.006509</ele>
        <time>2022-06-06T08:23:20.898Z</time>
      </trkpt>
      <trkpt lat="48.12827" lon="6.45323">
        <ele>515.904455</ele>
        <time>2022-06-06T08:23:24.897Z</time>
      </trkpt>
      <trkpt lat="48.12828" lon="6.45306">
        <ele>516.953322</ele>
        <time>2022-06-06T08:23:30.931Z</time>
      </trkpt>
      <trkpt lat="48.12828" lon="6.45293">
        <ele>517.829781</ele>
        <time>2022-06-06T08:23:34.920Z</time>
      </trkpt>
      <trkpt lat="48.12828" lon="6.45278">
        <ele>518.75799</ele>
        <time>2022-06-06T08:23:39.921Z</time>
      </trkpt>
      <trkpt lat="48.12833" lon="6.45265">
        <ele>519.764132</ele>
        <time>2022-06-06T08:23:44.935Z</time>
      </trkpt>
      <trkpt lat="48.12839" lon="6.45254">
        <ele>520.632995</ele>
        <time>2022-06-06T08:23:48.921Z</time>
      </trkpt>
      <trkpt lat="48.12837" lon="6.45239">
        <ele>521.632014</ele>
        <time>2022-06-06T08:23:53.932Z</time>
      </trkpt>
      <trkpt lat="48.12832" lon="6.45227">
        <ele>522.506798</ele>
        <time>2022-06-06T08:23:57.908Z</time>
      </trkpt>
      <trkpt lat="48.12826" lon="6.45215">
        <ele>523.459093</ele>
        <time>2022-06-06T08:24:01.927Z</time>
      </trkpt>
      <trkpt lat="48.12819" lon="6.45204">
        <ele>524.483902</ele>
        <time>2022-06-06T08:24:06.918Z</time>
      </trkpt>
      <trkpt lat="48.12812" lon="6.45193">
        <ele>525.419496</ele>
        <time>2022-06-06T08:24:10.927Z</time>
      </trkpt>
      <trkpt lat="48.12807" lon="6.45179">
        <ele>526.314671</ele>
        <time>2022-06-06T08:24:14.930Z</time>
      </trkpt>
      <trkpt lat="48.12799" lon="6.45167">
        <ele>526.477256</ele>
        <time>2022-06-06T08:24:18.928Z</time>
      </trkpt>
      <trkpt lat="48.12792" lon="6.45156">
        <ele>526.626993</ele>
        <time>2022-06-06T08:24:21.927Z</time>
      </trkpt>
      <trkpt lat="48.12786" lon="6.45144">
        <ele>526.775489</ele>
        <time>2022-06-06T08:24:24.903Z</time>
      </trkpt>
      <trkpt lat="48.12781" lon="6.45132">
        <ele>526.91226</ele>
        <time>2022-06-06T08:24:27.920Z</time>
      </trkpt>
      <trkpt lat="48.12774" lon="6.45119">
        <ele>527.083037</ele>
        <time>2022-06-06T08:24:31.915Z</time>
      </trkpt>
      <trkpt lat="48.12768" lon="6.45108">
        <ele>527.217529</ele>
        <time>2022-06-06T08:24:35.913Z</time>
      </trkpt>
      <trkpt lat="48.12762" lon="6.45095">
        <ele>527.371816</ele>
        <time>2022-06-06T08:24:39.932Z</time>
      </trkpt>
      <trkpt lat="48.12757" lon="6.45084">
        <ele>527.504541</ele>
        <time>2022-06-06T08:24:42.935Z</time>
      </trkpt>
      <trkpt lat="48.12752" lon="6.4507">
        <ele>527.657686</ele>
        <time>2022-06-06T08:24:46.907Z</time>
      </trkpt>
      <trkpt lat="48.12748" lon="6.45054">
        <ele>527.823449</ele>
        <time>2022-06-06T08:24:50.942Z</time>
      </trkpt>
      <trkpt lat="48.12744" lon="6.45039">
        <ele>527.983197</ele>
        <time>2022-06-06T08:24:54.912Z</time>
      </trkpt>
      <trkpt lat="48.12739" lon="6.45024">
        <ele>528.147927</ele>
        <time>2022-06-06T08:24:59.898Z</time>
      </trkpt>
      <trkpt lat="48.12732" lon="6.45012">
        <ele>528.294269</ele>
        <time>2022-06-06T08:25:03.901Z</time>
      </trkpt>
      <trkpt lat="48.12725" lon="6.45001">
        <ele>528.449873</ele>
        <time>2022-06-06T08:25:07.919Z</time>
      </trkpt>
      <trkpt lat="48.12719" lon="6.44991">
        <ele>528.581717</ele>
        <time>2022-06-06T08:25:10.905Z</time>
      </trkpt>
      <trkpt lat="48.12712" lon="6.44981">
        <ele>528.726247</ele>
        <time>2022-06-06T08:25:13.911Z</time>
      </trkpt>
      <trkpt lat="48.12705" lon="6.44971">
        <ele>528.861114</ele>
        <time>2022-06-06T08:25:16.934Z</time>
      </trkpt>
      <trkpt lat="48.12697" lon="6.44958">
        <ele>528.995234</ele>
        <time>2022-06-06T08:25:20.921Z</time>
      </trkpt>
      <trkpt lat="48.1269" lon="6.44943">
        <ele>529.108639</ele>
        <time>2022-06-06T08:25:24.904Z</time>
      </trkpt>
      <trkpt lat="48.12685" lon="6.44931">
        <ele>529.194818</ele>
        <time>2022-06-06T08:25:27.915Z</time>
      </trkpt>
      <trkpt lat="48.12679" lon="6.4492">
        <ele>529.283651</ele>
        <time>2022-06-06T08:25:30.926Z</time>
      </trkpt>
      <trkpt lat="48.12673" lon="6.44907">
        <ele>529.378591</ele>
        <time>2022-06-06T08:25:34.918Z</time>
      </trkpt>
      <trkpt lat="48.12666" lon="6.44892">
        <ele>529.489768</ele>
        <time>2022-06-06T08:25:38.915Z</time>
      </trkpt>
      <trkpt lat="48.12661" lon="6.4488">
        <ele>529.581611</ele>
        <time>2022-06-06T08:25:41.910Z</time>
      </trkpt>
      <trkpt lat="48.12652" lon="6.44869">
        <ele>529.685446</ele>
        <time>2022-06-06T08:25:45.923Z</time>
      </trkpt>
      <trkpt lat="48.12641" lon="6.44868">
        <ele>529.78471</ele>
        <time>2022-06-06T08:25:49.916Z</time>
      </trkpt>
      <trkpt lat="48.12632" lon="6.44867">
        <ele>529.872158</ele>
        <time>2022-06-06T08:25:52.916Z</time>
      </trkpt>
      <trkpt lat="48.12623" lon="6.44868">
        <ele>529.955075</ele>
        <time>2022-06-06T08:25:55.920Z</time>
      </trkpt>
      <trkpt lat="48.12611" lon="6.44871">
        <ele>530.062869</ele>
        <time>2022-06-06T08:25:59.907Z</time>
      </trkpt>
      <trkpt lat="48.12602" lon="6.4487">
        <ele>530.150277</ele>
        <time>2022-06-06T08:26:02.915Z</time>
      </trkpt>
      <trkpt lat="48.12591" lon="6.44867">
        <ele>530.250532</ele>
        <time>2022-06-06T08:26:06.891Z</time>
      </trkpt>
      <trkpt lat="48.12581" lon="6.44863">
        <ele>530.344834</ele>
        <time>2022-06-06T08:26:10.918Z</time>
      </trkpt>
      <trkpt lat="48.12569" lon="6.4486">
        <ele>530.451818</ele>
        <time>2022-06-06T08:26:14.915Z</time>
      </trkpt>
      <trkpt lat="48.12559" lon="6.44857">
        <ele>530.547942</ele>
        <time>2022-06-06T08:26:17.914Z</time>
      </trkpt>
      <trkpt lat="48.12548" lon="6.44855">
        <ele>530.932042</ele>
        <time>2022-06-06T08:26:21.919Z</time>
      </trkpt>
      <trkpt lat="48.12538" lon="6.44852">
        <ele>531.395838</ele>
        <time>2022-06-06T08:26:24.920Z</time>
      </trkpt>
      <trkpt lat="48.12527" lon="6.44852">
        <ele>531.898073</ele>
        <time>2022-06-06T08:26:28.906Z</time>
      </trkpt>
      <trkpt lat="48.12516" lon="6.44852">
        <ele>532.377346</ele>
        <time>2022-06-06T08:26:31.909Z</time>
      </trkpt>
      <trkpt lat="48.12507" lon="6.44854">
        <ele>532.795049</ele>
        <time>2022-06-06T08:26:34.910Z</time>
      </trkpt>
      <trkpt lat="48.12496" lon="6.44855">
        <ele>533.274322</ele>
        <time>2022-06-06T08:26:38.918Z</time>
      </trkpt>
      <trkpt lat="48.12486" lon="6.44855">
        <ele>533.740192</ele>
        <time>2022-06-06T08:26:42.907Z</time>
      </trkpt>
      <trkpt lat="48.12476" lon="6.44854">
        <ele>534.216735</ele>
        <time>2022-06-06T08:26:46.908Z</time>
      </trkpt>
      <trkpt lat="48.12465" lon="6.44852">
        <ele>534.700499</ele>
        <time>2022-06-06T08:26:50.902Z</time>
      </trkpt>
      <trkpt lat="48.12456" lon="6.44849">
        <ele>535.120464</ele>
        <time>2022-06-06T08:26:54.918Z</time>
      </trkpt>
      <trkpt lat="48.12446" lon="6.44846">
        <ele>535.555578</ele>
        <time>2022-06-06T08:26:57.915Z</time>
      </trkpt>
      <trkpt lat="48.12437" lon="6.4484">
        <ele>536.01069</ele>
        <time>2022-06-06T08:27:01.921Z</time>
      </trkpt>
      <trkpt lat="48.12428" lon="6.44832">
        <ele>536.493266</ele>
        <time>2022-06-06T08:27:05.907Z</time>
      </trkpt>
      <trkpt lat="48.12419" lon="6.44825">
        <ele>536.946546</ele>
        <time>2022-06-06T08:27:09.910Z</time>
      </trkpt>
      <trkpt lat="48.12411" lon="6.44812">
        <ele>537.477887</ele>
        <time>2022-06-06T08:27:14.902Z</time>
      </trkpt>
      <trkpt lat="48.12404" lon="6.448">
        <ele>537.967282</ele>
        <time>2022-06-06T08:27:18.919Z</time>
      </trkpt>
      <trkpt lat="48.12396" lon="6.44788">
        <ele>538.458055</ele>
        <time>2022-06-06T08:27:22.901Z</time>
      </trkpt>
      <trkpt lat="48.1239" lon="6.44776">
        <ele>539.10914</ele>
        <time>2022-06-06T08:27:27.914Z</time>
      </trkpt>
      <trkpt lat="48.12397" lon="6.44765">
        <ele>540.019355</ele>
        <time>2022-06-06T08:27:36.922Z</time>
      </trkpt>
      <trkpt lat="48.12407" lon="6.44762">
        <ele>540.966431</ele>
        <time>2022-06-06T08:27:40.895Z</time>
      </trkpt>
      <trkpt lat="48.12416" lon="6.44758">
        <ele>541.826485</ele>
        <time>2022-06-06T08:27:46.910Z</time>
      </trkpt>
      <trkpt lat="48.12425" lon="6.44755">
        <ele>542.664942</ele>
        <time>2022-06-06T08:27:52.909Z</time>
      </trkpt>
      <trkpt lat="48.12434" lon="6.44753">
        <ele>543.488417</ele>
        <time>2022-06-06T08:27:57.909Z</time>
      </trkpt>
      <trkpt lat="48.12442" lon="6.44747">
        <ele>544.309243</ele>
        <time>2022-06-06T08:28:02.928Z</time>
      </trkpt>
      <trkpt lat="48.12448" lon="6.44733">
        <ele>545.274013</ele>
        <time>2022-06-06T08:28:06.925Z</time>
      </trkpt>
      <trkpt lat="48.1245" lon="6.44718">
        <ele>546.222995</ele>
        <time>2022-06-06T08:28:10.918Z</time>
      </trkpt>
      <trkpt lat="48.12445" lon="6.44705">
        <ele>547.11191</ele>
        <time>2022-06-06T08:28:14.920Z</time>
      </trkpt>
      <trkpt lat="48.12437" lon="6.44693">
        <ele>548.138792</ele>
        <time>2022-06-06T08:28:19.963Z</time>
      </trkpt>
      <trkpt lat="48.12429" lon="6.44682">
        <ele>549.168393</ele>
        <time>2022-06-06T08:28:24.926Z</time>
      </trkpt>
      <trkpt lat="48.12421" lon="6.44672">
        <ele>550.067383</ele>
        <time>2022-06-06T08:28:28.919Z</time>
      </trkpt>
      <trkpt lat="48.12414" lon="6.44661">
        <ele>551.015158</ele>
        <time>2022-06-06T08:28:32.942Z</time>
      </trkpt>
      <trkpt lat="48.12406" lon="6.44653">
        <ele>551.845338</ele>
        <time>2022-06-06T08:28:36.915Z</time>
      </trkpt>
      <trkpt lat="48.12398" lon="6.44643">
        <ele>552.787052</ele>
        <time>2022-06-06T08:28:41.910Z</time>
      </trkpt>
      <trkpt lat="48.12391" lon="6.44634">
        <ele>553.645936</ele>
        <time>2022-06-06T08:28:45.912Z</time>
      </trkpt>
      <trkpt lat="48.12384" lon="6.44624">
        <ele>554.519053</ele>
        <time>2022-06-06T08:28:49.945Z</time>
      </trkpt>
      <trkpt lat="48.12376" lon="6.44614">
        <ele>555.135479</ele>
        <time>2022-06-06T08:28:53.942Z</time>
      </trkpt>
      <trkpt lat="48.12367" lon="6.44605">
        <ele>555.406778</ele>
        <time>2022-06-06T08:28:57.948Z</time>
      </trkpt>
      <trkpt lat="48.1236" lon="6.44597">
        <ele>555.65463</ele>
        <time>2022-06-06T08:29:01.930Z</time>
      </trkpt>
      <trkpt lat="48.12352" lon="6.44587">
        <ele>555.914363</ele>
        <time>2022-06-06T08:29:05.924Z</time>
      </trkpt>
      <trkpt lat="48.12344" lon="6.44575">
        <ele>556.21927</ele>
        <time>2022-06-06T08:29:10.936Z</time>
      </trkpt>
      <trkpt lat="48.12338" lon="6.44565">
        <ele>556.472718</ele>
        <time>2022-06-06T08:29:14.933Z</time>
      </trkpt>
      <trkpt lat="48.12332" lon="6.44554">
        <ele>556.712942</ele>
        <time>2022-06-06T08:29:18.944Z</time>
      </trkpt>
      <trkpt lat="48.12324" lon="6.44547">
        <ele>556.963622</ele>
        <time>2022-06-06T08:29:22.931Z</time>
      </trkpt>
      <trkpt lat="48.12314" lon="6.44538">
        <ele>557.260588</ele>
        <time>2022-06-06T08:29:26.942Z</time>
      </trkpt>
      <trkpt lat="48.12308" lon="6.44528">
        <ele>557.509046</ele>
        <time>2022-06-06T08:29:30.942Z</time>
      </trkpt>
      <trkpt lat="48.12302" lon="6.44516">
        <ele>557.768116</ele>
        <time>2022-06-06T08:29:34.946Z</time>
      </trkpt>
      <trkpt lat="48.12296" lon="6.44505">
        <ele>558.030667</ele>
        <time>2022-06-06T08:29:38.929Z</time>
      </trkpt>
      <trkpt lat="48.12289" lon="6.44492">
        <ele>558.302982</ele>
        <time>2022-06-06T08:29:42.916Z</time>
      </trkpt>
      <trkpt lat="48.12283" lon="6.44481">
        <ele>558.567515</ele>
        <time>2022-06-06T08:29:46.944Z</time>
      </trkpt>
      <trkpt lat="48.12277" lon="6.44471">
        <ele>558.810793</ele>
        <time>2022-06-06T08:29:50.935Z</time>
      </trkpt>
      <trkpt lat="48.12274" lon="6.44455">
        <ele>559.093502</ele>
        <time>2022-06-06T08:29:54.928Z</time>
      </trkpt>
      <trkpt lat="48.12272" lon="6.44441">
        <ele>559.355734</ele>
        <time>2022-06-06T08:29:57.935Z</time>
      </trkpt>
      <trkpt lat="48.12268" lon="6.44425">
        <ele>559.65084</ele>
        <time>2022-06-06T08:30:01.948Z</time>
      </trkpt>
      <trkpt lat="48.12266" lon="6.44411">
        <ele>559.386823</ele>
        <time>2022-06-06T08:30:04.933Z</time>
      </trkpt>
      <trkpt lat="48.12261" lon="6.44395">
        <ele>558.650497</ele>
        <time>2022-06-06T08:30:08.914Z</time>
      </trkpt>
      <trkpt lat="48.12253" lon="6.44386">
        <ele>558.022104</ele>
        <time>2022-06-06T08:30:11.950Z</time>
      </trkpt>
      <trkpt lat="48.12243" lon="6.44386">
        <ele>557.399968</ele>
        <time>2022-06-06T08:30:15.934Z</time>
      </trkpt>
      <trkpt lat="48.12234" lon="6.44389">
        <ele>556.80209</ele>
        <time>2022-06-06T08:30:19.932Z</time>
      </trkpt>
      <trkpt lat="48.12225" lon="6.44391">
        <ele>556.232894</ele>
        <time>2022-06-06T08:30:22.947Z</time>
      </trkpt>
      <trkpt lat="48.12215" lon="6.44398">
        <ele>555.557035</ele>
        <time>2022-06-06T08:30:26.944Z</time>
      </trkpt>
      <trkpt lat="48.12205" lon="6.44403">
        <ele>554.877517</ele>
        <time>2022-06-06T08:30:30.932Z</time>
      </trkpt>
      <trkpt lat="48.12194" lon="6.44407">
        <ele>554.178147</ele>
        <time>2022-06-06T08:30:34.932Z</time>
      </trkpt>
      <trkpt lat="48.12185" lon="6.44416">
        <ele>553.471014</ele>
        <time>2022-06-06T08:30:38.909Z</time>
      </trkpt>
      <trkpt lat="48.12175" lon="6.44415">
        <ele>552.872195</ele>
        <time>2022-06-06T08:30:43.924Z</time>
      </trkpt>
      <trkpt lat="48.12166" lon="6.44409">
        <ele>552.276129</ele>
        <time>2022-06-06T08:30:47.943Z</time>
      </trkpt>
      <trkpt lat="48.12156" lon="6.44409">
        <ele>551.654628</ele>
        <time>2022-06-06T08:30:50.932Z</time>
      </trkpt>
      <trkpt lat="48.12147" lon="6.44405">
        <ele>551.018123</ele>
        <time>2022-06-06T08:30:54.935Z</time>
      </trkpt>
      <trkpt lat="48.12137" lon="6.44399">
        <ele>550.339609</ele>
        <time>2022-06-06T08:30:58.957Z</time>
      </trkpt>
      <trkpt lat="48.12128" lon="6.44393">
        <ele>549.734411</ele>
        <time>2022-06-06T08:31:01.942Z</time>
      </trkpt>
      <trkpt lat="48.12119" lon="6.44389">
        <ele>549.12945</ele>
        <time>2022-06-06T08:31:04.911Z</time>
      </trkpt>
      <trkpt lat="48.1211" lon="6.44384">
        <ele>548.525429</ele>
        <time>2022-06-06T08:31:07.922Z</time>
      </trkpt>
      <trkpt lat="48.12098" lon="6.44378">
        <ele>548.000053</ele>
        <time>2022-06-06T08:31:11.930Z</time>
      </trkpt>
      <trkpt lat="48.12088" lon="6.44369">
        <ele>547.503131</ele>
        <time>2022-06-06T08:31:15.918Z</time>
      </trkpt>
      <trkpt lat="48.1208" lon="6.44363">
        <ele>547.125549</ele>
        <time>2022-06-06T08:31:18.934Z</time>
      </trkpt>
      <trkpt lat="48.12072" lon="6.44356">
        <ele>546.739271</ele>
        <time>2022-06-06T08:31:22.941Z</time>
      </trkpt>
      <trkpt lat="48.12076" lon="6.44341">
        <ele>546.283575</ele>
        <time>2022-06-06T08:31:26.922Z</time>
      </trkpt>
      <trkpt lat="48.12082" lon="6.4433">
        <ele>545.884758</ele>
        <time>2022-06-06T08:31:29.929Z</time>
      </trkpt>
      <trkpt lat="48.1209" lon="6.44316">
        <ele>545.390485</ele>
        <time>2022-06-06T08:31:33.947Z</time>
      </trkpt>
      <trkpt lat="48.12096" lon="6.44305">
        <ele>544.973821</ele>
        <time>2022-06-06T08:31:37.942Z</time>
      </trkpt>
      <trkpt lat="48.12103" lon="6.44293">
        <ele>544.534086</ele>
        <time>2022-06-06T08:31:41.930Z</time>
      </trkpt>
      <trkpt lat="48.12108" lon="6.4428">
        <ele>544.108851</ele>
        <time>2022-06-06T08:31:45.923Z</time>
      </trkpt>
      <trkpt lat="48.12117" lon="6.44268">
        <ele>543.628688</ele>
        <time>2022-06-06T08:31:49.923Z</time>
      </trkpt>
      <trkpt lat="48.12124" lon="6.44258">
        <ele>543.189519</ele>
        <time>2022-06-06T08:31:53.951Z</time>
      </trkpt>
      <trkpt lat="48.12134" lon="6.44249">
        <ele>542.726891</ele>
        <time>2022-06-06T08:31:57.942Z</time>
      </trkpt>
      <trkpt lat="48.12142" lon="6.4424">
        <ele>542.285921</ele>
        <time>2022-06-06T08:32:01.935Z</time>
      </trkpt>
      <trkpt lat="48.12151" lon="6.44231">
        <ele>541.839655</ele>
        <time>2022-06-06T08:32:05.921Z</time>
      </trkpt>
      <trkpt lat="48.12159" lon="6.44224">
        <ele>541.457903</ele>
        <time>2022-06-06T08:32:08.915Z</time>
      </trkpt>
      <trkpt lat="48.12169" lon="6.44216">
        <ele>540.981053</ele>
        <time>2022-06-06T08:32:12.916Z</time>
      </trkpt>
      <trkpt lat="48.12178" lon="6.44212">
        <ele>540.928746</ele>
        <time>2022-06-06T08:32:16.921Z</time>
      </trkpt>
      <trkpt lat="48.12188" lon="6.44208">
        <ele>540.967466</ele>
        <time>2022-06-06T08:32:19.928Z</time>
      </trkpt>
      <trkpt lat="48.12196" lon="6.44203">
        <ele>541.003909</ele>
        <time>2022-06-06T08:32:22.945Z</time>
      </trkpt>
      <trkpt lat="48.12207" lon="6.442">
        <ele>541.046507</ele>
        <time>2022-06-06T08:32:25.929Z</time>
      </trkpt>
      <trkpt lat="48.12219" lon="6.44196">
        <ele>541.094904</ele>
        <time>2022-06-06T08:32:29.929Z</time>
      </trkpt>
      <trkpt lat="48.12227" lon="6.44193">
        <ele>541.131106</ele>
        <time>2022-06-06T08:32:32.927Z</time>
      </trkpt>
      <trkpt lat="48.12238" lon="6.44185">
        <ele>541.176931</ele>
        <time>2022-06-06T08:32:36.912Z</time>
      </trkpt>
      <trkpt lat="48.12248" lon="6.44187">
        <ele>541.22007</ele>
        <time>2022-06-06T08:32:41.939Z</time>
      </trkpt>
      <trkpt lat="48.12255" lon="6.44198">
        <ele>541.257286</ele>
        <time>2022-06-06T08:32:44.911Z</time>
      </trkpt>
      <trkpt lat="48.12262" lon="6.4421">
        <ele>541.300088</ele>
        <time>2022-06-06T08:32:48.928Z</time>
      </trkpt>
      <trkpt lat="48.12269" lon="6.44223">
        <ele>541.344628</ele>
        <time>2022-06-06T08:32:52.935Z</time>
      </trkpt>
      <trkpt lat="48.12275" lon="6.44236">
        <ele>541.387844</ele>
        <time>2022-06-06T08:32:56.939Z</time>
      </trkpt>
      <trkpt lat="48.12282" lon="6.4425">
        <ele>541.434184</ele>
        <time>2022-06-06T08:33:00.929Z</time>
      </trkpt>
      <trkpt lat="48.12288" lon="6.44261">
        <ele>541.472922</ele>
        <time>2022-06-06T08:33:04.929Z</time>
      </trkpt>
      <trkpt lat="48.12296" lon="6.44273">
        <ele>541.517861</ele>
        <time>2022-06-06T08:33:08.926Z</time>
      </trkpt>
      <trkpt lat="48.12304" lon="6.4428">
        <ele>541.553971</ele>
        <time>2022-06-06T08:33:11.933Z</time>
      </trkpt>
      <trkpt lat="48.12311" lon="6.44289">
        <ele>541.591054</ele>
        <time>2022-06-06T08:33:14.934Z</time>
      </trkpt>
      <trkpt lat="48.12318" lon="6.44298">
        <ele>541.603462</ele>
        <time>2022-06-06T08:33:17.917Z</time>
      </trkpt>
      <trkpt lat="48.12327" lon="6.4431">
        <ele>541.566388</ele>
        <time>2022-06-06T08:33:21.917Z</time>
      </trkpt>
      <trkpt lat="48.12334" lon="6.44319">
        <ele>541.537405</ele>
        <time>2022-06-06T08:33:24.933Z</time>
      </trkpt>
      <trkpt lat="48.12342" lon="6.44332">
        <ele>541.501178</ele>
        <time>2022-06-06T08:33:28.913Z</time>
      </trkpt>
      <trkpt lat="48.12347" lon="6.44344">
        <ele>541.472196</ele>
        <time>2022-06-06T08:33:31.926Z</time>
      </trkpt>
      <trkpt lat="48.12352" lon="6.44355">
        <ele>541.444111</ele>
        <time>2022-06-06T08:33:34.924Z</time>
      </trkpt>
      <trkpt lat="48.12358" lon="6.44368">
        <ele>541.411322</ele>
        <time>2022-06-06T08:33:38.926Z</time>
      </trkpt>
      <trkpt lat="48.12358" lon="6.44386">
        <ele>541.373947</ele>
        <time>2022-06-06T08:33:42.926Z</time>
      </trkpt>
      <trkpt lat="48.1236" lon="6.444">
        <ele>541.344071</ele>
        <time>2022-06-06T08:33:46.942Z</time>
      </trkpt>
      <trkpt lat="48.12361" lon="6.44418">
        <ele>541.307847</ele>
        <time>2022-06-06T08:33:50.909Z</time>
      </trkpt>
      <trkpt lat="48.12364" lon="6.4443">
        <ele>541.279747</ele>
        <time>2022-06-06T08:33:53.920Z</time>
      </trkpt>
      <trkpt lat="48.1237" lon="6.44443">
        <ele>541.248006</ele>
        <time>2022-06-06T08:33:56.932Z</time>
      </trkpt>
      <trkpt lat="48.12375" lon="6.44457">
        <ele>541.213181</ele>
        <time>2022-06-06T08:34:00.915Z</time>
      </trkpt>
      <trkpt lat="48.12378" lon="6.44474">
        <ele>541.176684</ele>
        <time>2022-06-06T08:34:04.934Z</time>
      </trkpt>
      <trkpt lat="48.12383" lon="6.44486">
        <ele>541.147503</ele>
        <time>2022-06-06T08:34:07.913Z</time>
      </trkpt>
      <trkpt lat="48.12388" lon="6.44498">
        <ele>541.119232</ele>
        <time>2022-06-06T08:34:10.932Z</time>
      </trkpt>
      <trkpt lat="48.12395" lon="6.4451">
        <ele>541.084687</ele>
        <time>2022-06-06T08:34:14.933Z</time>
      </trkpt>
      <trkpt lat="48.12403" lon="6.44519">
        <ele>541.053321</ele>
        <time>2022-06-06T08:34:18.926Z</time>
      </trkpt>
      <trkpt lat="48.12414" lon="6.44527">
        <ele>540.751236</ele>
        <time>2022-06-06T08:34:22.930Z</time>
      </trkpt>
      <trkpt lat="48.12422" lon="6.44534">
        <ele>540.500622</ele>
        <time>2022-06-06T08:34:25.930Z</time>
      </trkpt>
      <trkpt lat="48.12431" lon="6.44543">
        <ele>540.209764</ele>
        <time>2022-06-06T08:34:29.921Z</time>
      </trkpt>
      <trkpt lat="48.12441" lon="6.44554">
        <ele>539.899274</ele>
        <time>2022-06-06T08:34:33.921Z</time>
      </trkpt>
      <trkpt lat="48.12448" lon="6.44562">
        <ele>539.66111</ele>
        <time>2022-06-06T08:34:36.934Z</time>
      </trkpt>
      <trkpt lat="48.12455" lon="6.44571">
        <ele>539.418739</ele>
        <time>2022-06-06T08:34:39.927Z</time>
      </trkpt>
      <trkpt lat="48.12463" lon="6.4458">
        <ele>539.161526</ele>
        <time>2022-06-06T08:34:42.925Z</time>
      </trkpt>
      <trkpt lat="48.12473" lon="6.44589">
        <ele>538.859694</ele>
        <time>2022-06-06T08:34:46.957Z</time>
      </trkpt>
      <trkpt lat="48.12482" lon="6.44596">
        <ele>538.593479</ele>
        <time>2022-06-06T08:34:49.931Z</time>
      </trkpt>
      <trkpt lat="48.12492" lon="6.446">
        <ele>538.322962</ele>
        <time>2022-06-06T08:34:52.919Z</time>
      </trkpt>
      <trkpt lat="48.12501" lon="6.44605">
        <ele>538.078366</ele>
        <time>2022-06-06T08:34:55.906Z</time>
      </trkpt>
      <trkpt lat="48.1251" lon="6.44609">
        <ele>537.835356</ele>
        <time>2022-06-06T08:34:59.915Z</time>
      </trkpt>
      <trkpt lat="48.1252" lon="6.44615">
        <ele>537.555315</ele>
        <time>2022-06-06T08:35:03.917Z</time>
      </trkpt>
      <trkpt lat="48.1253" lon="6.44623">
        <ele>537.259539</ele>
        <time>2022-06-06T08:35:07.916Z</time>
      </trkpt>
      <trkpt lat="48.12539" lon="6.44633">
        <ele>536.952235</ele>
        <time>2022-06-06T08:35:11.946Z</time>
      </trkpt>
      <trkpt lat="48.12546" lon="6.44642">
        <ele>536.714636</ele>
        <time>2022-06-06T08:35:14.930Z</time>
      </trkpt>
      <trkpt lat="48.12552" lon="6.44653">
        <ele>536.465163</ele>
        <time>2022-06-06T08:35:17.931Z</time>
      </trkpt>
      <trkpt lat="48.12559" lon="6.44662">
        <ele>536.229596</ele>
        <time>2022-06-06T08:35:20.937Z</time>
      </trkpt>
      <trkpt lat="48.12568" lon="6.44675">
        <ele>535.941323</ele>
        <time>2022-06-06T08:35:24.937Z</time>
      </trkpt>
      <trkpt lat="48.12575" lon="6.44684">
        <ele>535.723483</ele>
        <time>2022-06-06T08:35:32.918Z</time>
      </trkpt>
      <trkpt lat="48.12581" lon="6.44704">
        <ele>535.386223</ele>
        <time>2022-06-06T08:35:54.956Z</time>
      </trkpt>
      <trkpt lat="48.12586" lon="6.44717">
        <ele>535.138882</ele>
        <time>2022-06-06T08:35:58.916Z</time>
      </trkpt>
      <trkpt lat="48.1259" lon="6.44732">
        <ele>534.887043</ele>
        <time>2022-06-06T08:36:01.957Z</time>
      </trkpt>
      <trkpt lat="48.12593" lon="6.44745">
        <ele>534.663898</ele>
        <time>2022-06-06T08:36:04.931Z</time>
      </trkpt>
      <trkpt lat="48.12598" lon="6.44758">
        <ele>534.433616</ele>
        <time>2022-06-06T08:36:07.945Z</time>
      </trkpt>
      <trkpt lat="48.12602" lon="6.4477">
        <ele>534.21647</ele>
        <time>2022-06-06T08:36:10.938Z</time>
      </trkpt>
      <trkpt lat="48.12606" lon="6.44784">
        <ele>533.973177</ele>
        <time>2022-06-06T08:36:13.926Z</time>
      </trkpt>
      <trkpt lat="48.12613" lon="6.44797">
        <ele>533.714258</ele>
        <time>2022-06-06T08:36:16.949Z</time>
      </trkpt>
      <trkpt lat="48.12622" lon="6.44807">
        <ele>533.443549</ele>
        <time>2022-06-06T08:36:20.967Z</time>
      </trkpt>
      <trkpt lat="48.12631" lon="6.44817">
        <ele>533.183317</ele>
        <time>2022-06-06T08:36:23.962Z</time>
      </trkpt>
      <trkpt lat="48.12638" lon="6.44827">
        <ele>532.95057</ele>
        <time>2022-06-06T08:36:26.943Z</time>
      </trkpt>
      <trkpt lat="48.12646" lon="6.44836">
        <ele>532.715674</ele>
        <time>2022-06-06T08:36:29.944Z</time>
      </trkpt>
      <trkpt lat="48.12653" lon="6.44847">
        <ele>532.471467</ele>
        <time>2022-06-06T08:36:32.946Z</time>
      </trkpt>
      <trkpt lat="48.12661" lon="6.44857">
        <ele>532.222533</ele>
        <time>2022-06-06T08:36:36.971Z</time>
      </trkpt>
      <trkpt lat="48.12668" lon="6.44869">
        <ele>532.02078</ele>
        <time>2022-06-06T08:36:40.931Z</time>
      </trkpt>
      <trkpt lat="48.12677" lon="6.4488">
        <ele>531.87302</ele>
        <time>2022-06-06T08:36:44.940Z</time>
      </trkpt>
      <trkpt lat="48.12685" lon="6.44891">
        <ele>531.729961</ele>
        <time>2022-06-06T08:36:48.940Z</time>
      </trkpt>
      <trkpt lat="48.12693" lon="6.44902">
        <ele>531.588272</ele>
        <time>2022-06-06T08:36:52.936Z</time>
      </trkpt>
      <trkpt lat="48.127" lon="6.44915">
        <ele>531.440461</ele>
        <time>2022-06-06T08:36:56.944Z</time>
      </trkpt>
      <trkpt lat="48.12708" lon="6.44926">
        <ele>531.305272</ele>
        <time>2022-06-06T08:37:00.945Z</time>
      </trkpt>
      <trkpt lat="48.12715" lon="6.44935">
        <ele>531.183528</ele>
        <time>2022-06-06T08:37:03.956Z</time>
      </trkpt>
      <trkpt lat="48.12722" lon="6.44945">
        <ele>531.060607</ele>
        <time>2022-06-06T08:37:06.944Z</time>
      </trkpt>
      <trkpt lat="48.1273" lon="6.44958">
        <ele>530.903734</ele>
        <time>2022-06-06T08:37:10.921Z</time>
      </trkpt>
      <trkpt lat="48.12736" lon="6.44967">
        <ele>530.783072</ele>
        <time>2022-06-06T08:37:13.945Z</time>
      </trkpt>
      <trkpt lat="48.12742" lon="6.44978">
        <ele>530.661709</ele>
        <time>2022-06-06T08:37:16.938Z</time>
      </trkpt>
      <trkpt lat="48.12749" lon="6.44992">
        <ele>530.508355</ele>
        <time>2022-06-06T08:37:20.933Z</time>
      </trkpt>
      <trkpt lat="48.12755" lon="6.45003">
        <ele>530.38398</ele>
        <time>2022-06-06T08:37:23.936Z</time>
      </trkpt>
      <trkpt lat="48.12764" lon="6.45016">
        <ele>530.226195</ele>
        <time>2022-06-06T08:37:27.935Z</time>
      </trkpt>
      <trkpt lat="48.12771" lon="6.45027">
        <ele>530.085974</ele>
        <time>2022-06-06T08:37:30.929Z</time>
      </trkpt>
      <trkpt lat="48.12778" lon="6.45039">
        <ele>529.949671</ele>
        <time>2022-06-06T08:37:33.938Z</time>
      </trkpt>
      <trkpt lat="48.12785" lon="6.45051">
        <ele>529.811228</ele>
        <time>2022-06-06T08:37:36.945Z</time>
      </trkpt>
      <trkpt lat="48.12792" lon="6.4506">
        <ele>529.734188</ele>
        <time>2022-06-06T08:37:39.927Z</time>
      </trkpt>
      <trkpt lat="48.12801" lon="6.45067">
        <ele>529.743769</ele>
        <time>2022-06-06T08:37:42.937Z</time>
      </trkpt>
      <trkpt lat="48.1281" lon="6.45078">
        <ele>529.7557</ele>
        <time>2022-06-06T08:37:46.924Z</time>
      </trkpt>
      <trkpt lat="48.12818" lon="6.45089">
        <ele>529.766847</ele>
        <time>2022-06-06T08:37:50.936Z</time>
      </trkpt>
      <trkpt lat="48.12826" lon="6.45097">
        <ele>529.776113</ele>
        <time>2022-06-06T08:37:54.943Z</time>
      </trkpt>
      <trkpt lat="48.12836" lon="6.45107">
        <ele>529.788397</ele>
        <time>2022-06-06T08:37:58.923Z</time>
      </trkpt>
      <trkpt lat="48.12843" lon="6.45116">
        <ele>529.797615</ele>
        <time>2022-06-06T08:38:01.948Z</time>
      </trkpt>
      <trkpt lat="48.1285" lon="6.45124">
        <ele>529.806961</ele>
        <time>2022-06-06T08:38:04.939Z</time>
      </trkpt>
      <trkpt lat="48.12857" lon="6.45134">
        <ele>529.81672</ele>
        <time>2022-06-06T08:38:07.935Z</time>
      </trkpt>
      <trkpt lat="48.12865" lon="6.45143">
        <ele>529.826067</ele>
        <time>2022-06-06T08:38:10.932Z</time>
      </trkpt>
      <trkpt lat="48.12874" lon="6.45153">
        <ele>529.837828</ele>
        <time>2022-06-06T08:38:14.935Z</time>
      </trkpt>
      <trkpt lat="48.12883" lon="6.45164">
        <ele>529.849752</ele>
        <time>2022-06-06T08:38:18.941Z</time>
      </trkpt>
      <trkpt lat="48.12893" lon="6.45174">
        <ele>529.861672</ele>
        <time>2022-06-06T08:38:22.963Z</time>
      </trkpt>
      <trkpt lat="48.12902" lon="6.45185">
        <ele>529.872763</ele>
        <time>2022-06-06T08:38:26.934Z</time>
      </trkpt>
      <trkpt lat="48.1291" lon="6.45194">
        <ele>529.882867</ele>
        <time>2022-06-06T08:38:29.936Z</time>
      </trkpt>
      <trkpt lat="48.12918" lon="6.45203">
        <ele>529.893297</ele>
        <time>2022-06-06T08:38:33.944Z</time>
      </trkpt>
      <trkpt lat="48.12927" lon="6.45213">
        <ele>529.904797</ele>
        <time>2022-06-06T08:38:37.938Z</time>
      </trkpt>
      <trkpt lat="48.12936" lon="6.45219">
        <ele>529.888069</ele>
        <time>2022-06-06T08:38:40.955Z</time>
      </trkpt>
      <trkpt lat="48.12946" lon="6.45225">
        <ele>529.789807</ele>
        <time>2022-06-06T08:38:43.947Z</time>
      </trkpt>
      <trkpt lat="48.12955" lon="6.45232">
        <ele>529.692977</ele>
        <time>2022-06-06T08:38:46.939Z</time>
      </trkpt>
      <trkpt lat="48.12963" lon="6.45241">
        <ele>529.598017</ele>
        <time>2022-06-06T08:38:49.960Z</time>
      </trkpt>
      <trkpt lat="48.12971" lon="6.45248">
        <ele>529.513743</ele>
        <time>2022-06-06T08:38:52.940Z</time>
      </trkpt>
      <trkpt lat="48.12979" lon="6.45256">
        <ele>529.425613</ele>
        <time>2022-06-06T08:38:55.950Z</time>
      </trkpt>
      <trkpt lat="48.12987" lon="6.45264">
        <ele>529.334233</ele>
        <time>2022-06-06T08:38:59.930Z</time>
      </trkpt>
      <trkpt lat="48.12996" lon="6.45274">
        <ele>529.232592</ele>
        <time>2022-06-06T08:39:02.943Z</time>
      </trkpt>
      <trkpt lat="48.13005" lon="6.45279">
        <ele>529.143257</ele>
        <time>2022-06-06T08:39:05.924Z</time>
      </trkpt>
      <trkpt lat="48.13015" lon="6.45285">
        <ele>529.042805</ele>
        <time>2022-06-06T08:39:09.943Z</time>
      </trkpt>
      <trkpt lat="48.13026" lon="6.4529">
        <ele>528.934922</ele>
        <time>2022-06-06T08:39:13.933Z</time>
      </trkpt>
      <trkpt lat="48.13035" lon="6.45294">
        <ele>528.847331</ele>
        <time>2022-06-06T08:39:16.926Z</time>
      </trkpt>
      <trkpt lat="48.13046" lon="6.45296">
        <ele>528.73962</ele>
        <time>2022-06-06T08:39:20.956Z</time>
      </trkpt>
      <trkpt lat="48.13057" lon="6.45301">
        <ele>528.636733</ele>
        <time>2022-06-06T08:39:24.935Z</time>
      </trkpt>
      <trkpt lat="48.13067" lon="6.45309">
        <ele>528.53047</ele>
        <time>2022-06-06T08:39:28.916Z</time>
      </trkpt>
      <trkpt lat="48.13078" lon="6.45315">
        <ele>528.421698</ele>
        <time>2022-06-06T08:39:32.933Z</time>
      </trkpt>
      <trkpt lat="48.13088" lon="6.45319">
        <ele>528.329001</ele>
        <time>2022-06-06T08:39:36.944Z</time>
      </trkpt>
      <trkpt lat="48.13097" lon="6.45324">
        <ele>528.239258</ele>
        <time>2022-06-06T08:39:40.934Z</time>
      </trkpt>
      <trkpt lat="48.13108" lon="6.4533">
        <ele>528.152532</ele>
        <time>2022-06-06T08:39:44.926Z</time>
      </trkpt>
      <trkpt lat="48.13117" lon="6.45335">
        <ele>528.077844</ele>
        <time>2022-06-06T08:39:48.914Z</time>
      </trkpt>
      <trkpt lat="48.13127" lon="6.45344">
        <ele>527.990704</ele>
        <time>2022-06-06T08:39:52.917Z</time>
      </trkpt>
      <trkpt lat="48.13137" lon="6.45353">
        <ele>527.90373</ele>
        <time>2022-06-06T08:39:56.908Z</time>
      </trkpt>
      <trkpt lat="48.13146" lon="6.45364">
        <ele>527.815274</ele>
        <time>2022-06-06T08:40:00.915Z</time>
      </trkpt>
      <trkpt lat="48.13155" lon="6.45372">
        <ele>527.740968</ele>
        <time>2022-06-06T08:40:04.936Z</time>
      </trkpt>
      <trkpt lat="48.13163" lon="6.45382">
        <ele>527.660249</ele>
        <time>2022-06-06T08:40:08.923Z</time>
      </trkpt>
      <trkpt lat="48.13173" lon="6.45393">
        <ele>527.570015</ele>
        <time>2022-06-06T08:40:12.926Z</time>
      </trkpt>
      <trkpt lat="48.13181" lon="6.45404">
        <ele>527.490611</ele>
        <time>2022-06-06T08:40:15.939Z</time>
      </trkpt>
      <trkpt lat="48.13189" lon="6.45416">
        <ele>527.400556</ele>
        <time>2022-06-06T08:40:19.954Z</time>
      </trkpt>
      <trkpt lat="48.13198" lon="6.45427">
        <ele>527.316784</ele>
        <time>2022-06-06T08:40:23.924Z</time>
      </trkpt>
      <trkpt lat="48.13206" lon="6.4544">
        <ele>527.228679</ele>
        <time>2022-06-06T08:40:27.937Z</time>
      </trkpt>
      <trkpt lat="48.13212" lon="6.4545">
        <ele>527.160438</ele>
        <time>2022-06-06T08:40:31.952Z</time>
      </trkpt>
      <trkpt lat="48.13223" lon="6.45459">
        <ele>527.070025</ele>
        <time>2022-06-06T08:40:36.933Z</time>
      </trkpt>
      <trkpt lat="48.13231" lon="6.4547">
        <ele>526.98603</ele>
        <time>2022-06-06T08:40:40.930Z</time>
      </trkpt>
      <trkpt lat="48.13239" lon="6.45477">
        <ele>526.915972</ele>
        <time>2022-06-06T08:40:43.931Z</time>
      </trkpt>
      <trkpt lat="48.13247" lon="6.45487">
        <ele>526.802478</ele>
        <time>2022-06-06T08:40:46.928Z</time>
      </trkpt>
      <trkpt lat="48.13253" lon="6.45498">
        <ele>526.672523</ele>
        <time>2022-06-06T08:40:49.941Z</time>
      </trkpt>
      <trkpt lat="48.13263" lon="6.45508">
        <ele>526.522197</ele>
        <time>2022-06-06T08:40:53.952Z</time>
      </trkpt>
      <trkpt lat="48.13272" lon="6.45517">
        <ele>526.378055</ele>
        <time>2022-06-06T08:40:57.931Z</time>
      </trkpt>
      <trkpt lat="48.13279" lon="6.45525">
        <ele>526.252583</ele>
        <time>2022-06-06T08:41:00.925Z</time>
      </trkpt>
      <trkpt lat="48.1329" lon="6.45533">
        <ele>526.094139</ele>
        <time>2022-06-06T08:41:04.938Z</time>
      </trkpt>
      <trkpt lat="48.13299" lon="6.4554">
        <ele>525.966895</ele>
        <time>2022-06-06T08:41:07.944Z</time>
      </trkpt>
      <trkpt lat="48.13308" lon="6.45546">
        <ele>525.841806</ele>
        <time>2022-06-06T08:41:10.951Z</time>
      </trkpt>
      <trkpt lat="48.13316" lon="6.45553">
        <ele>525.710269</ele>
        <time>2022-06-06T08:41:13.940Z</time>
      </trkpt>
      <trkpt lat="48.13326" lon="6.4556">
        <ele>525.565714</ele>
        <time>2022-06-06T08:41:17.932Z</time>
      </trkpt>
      <trkpt lat="48.13335" lon="6.45566">
        <ele>525.438565</ele>
        <time>2022-06-06T08:41:20.942Z</time>
      </trkpt>
      <trkpt lat="48.13343" lon="6.45574">
        <ele>525.316136</ele>
        <time>2022-06-06T08:41:23.948Z</time>
      </trkpt>
      <trkpt lat="48.1335" lon="6.45582">
        <ele>525.191719</ele>
        <time>2022-06-06T08:41:26.938Z</time>
      </trkpt>
      <trkpt lat="48.13359" lon="6.45592">
        <ele>525.056801</ele>
        <time>2022-06-06T08:41:29.934Z</time>
      </trkpt>
      <trkpt lat="48.13366" lon="6.45605">
        <ele>524.904393</ele>
        <time>2022-06-06T08:41:33.946Z</time>
      </trkpt>
      <trkpt lat="48.13373" lon="6.45615">
        <ele>524.775931</ele>
        <time>2022-06-06T08:41:37.947Z</time>
      </trkpt>
      <trkpt lat="48.13379" lon="6.45629">
        <ele>524.630846</ele>
        <time>2022-06-06T08:41:41.949Z</time>
      </trkpt>
      <trkpt lat="48.13384" lon="6.45643">
        <ele>524.694825</ele>
        <time>2022-06-06T08:41:45.943Z</time>
      </trkpt>
      <trkpt lat="48.13389" lon="6.45658">
        <ele>525.276262</ele>
        <time>2022-06-06T08:41:50.942Z</time>
      </trkpt>
      <trkpt lat="48.13396" lon="6.4567">
        <ele>525.79152</ele>
        <time>2022-06-06T08:41:54.948Z</time>
      </trkpt>
      <trkpt lat="48.13402" lon="6.45683">
        <ele>526.331115</ele>
        <time>2022-06-06T08:41:58.933Z</time>
      </trkpt>
      <trkpt lat="48.13408" lon="6.45696">
        <ele>526.902272</ele>
        <time>2022-06-06T08:42:02.930Z</time>
      </trkpt>
      <trkpt lat="48.13413" lon="6.45708">
        <ele>527.387735</ele>
        <time>2022-06-06T08:42:06.921Z</time>
      </trkpt>
      <trkpt lat="48.1342" lon="6.45721">
        <ele>527.94487</ele>
        <time>2022-06-06T08:42:10.948Z</time>
      </trkpt>
      <trkpt lat="48.13425" lon="6.45733">
        <ele>528.419752</ele>
        <time>2022-06-06T08:42:14.930Z</time>
      </trkpt>
      <trkpt lat="48.13431" lon="6.45745">
        <ele>528.93817</ele>
        <time>2022-06-06T08:42:19.948Z</time>
      </trkpt>
      <trkpt lat="48.13436" lon="6.45759">
        <ele>529.486134</ele>
        <time>2022-06-06T08:42:23.928Z</time>
      </trkpt>
      <trkpt lat="48.1344" lon="6.45773">
        <ele>529.979913</ele>
        <time>2022-06-06T08:42:27.932Z</time>
      </trkpt>
      <trkpt lat="48.13445" lon="6.45786">
        <ele>530.502524</ele>
        <time>2022-06-06T08:42:31.949Z</time>
      </trkpt>
      <trkpt lat="48.13451" lon="6.45798">
        <ele>530.999322</ele>
        <time>2022-06-06T08:42:35.941Z</time>
      </trkpt>
      <trkpt lat="48.13456" lon="6.45811">
        <ele>531.519249</ele>
        <time>2022-06-06T08:42:39.940Z</time>
      </trkpt>
      <trkpt lat="48.13468" lon="6.45839">
        <ele>532.669532</ele>
        <time>2022-06-06T08:43:24.947Z</time>
      </trkpt>
      <trkpt lat="48.13471" lon="6.45855">
        <ele>533.237832</ele>
        <time>2022-06-06T08:43:28.950Z</time>
      </trkpt>
      <trkpt lat="48.13475" lon="6.4587">
        <ele>533.727425</ele>
        <time>2022-06-06T08:43:32.953Z</time>
      </trkpt>
      <trkpt lat="48.13479" lon="6.45884">
        <ele>533.628694</ele>
        <time>2022-06-06T08:43:36.929Z</time>
      </trkpt>
      <trkpt lat="48.13485" lon="6.45899">
        <ele>533.520908</ele>
        <time>2022-06-06T08:43:40.944Z</time>
      </trkpt>
      <trkpt lat="48.1349" lon="6.45913">
        <ele>533.423938</ele>
        <time>2022-06-06T08:43:44.956Z</time>
      </trkpt>
      <trkpt lat="48.13492" lon="6.45927">
        <ele>533.333646</ele>
        <time>2022-06-06T08:43:47.934Z</time>
      </trkpt>
      <trkpt lat="48.13495" lon="6.45941">
        <ele>533.244328</ele>
        <time>2022-06-06T08:43:50.950Z</time>
      </trkpt>
      <trkpt lat="48.13499" lon="6.45957">
        <ele>533.137922</ele>
        <time>2022-06-06T08:43:53.960Z</time>
      </trkpt>
      <trkpt lat="48.13505" lon="6.45968">
        <ele>533.050513</ele>
        <time>2022-06-06T08:43:56.919Z</time>
      </trkpt>
      <trkpt lat="48.13511" lon="6.45979">
        <ele>532.962879</ele>
        <time>2022-06-06T08:43:59.930Z</time>
      </trkpt>
      <trkpt lat="48.13517" lon="6.45989">
        <ele>532.87879</ele>
        <time>2022-06-06T08:44:02.933Z</time>
      </trkpt>
      <trkpt lat="48.13525" lon="6.45995">
        <ele>532.79433</ele>
        <time>2022-06-06T08:44:05.950Z</time>
      </trkpt>
      <trkpt lat="48.13535" lon="6.46004">
        <ele>532.691775</ele>
        <time>2022-06-06T08:44:09.943Z</time>
      </trkpt>
      <trkpt lat="48.13544" lon="6.46011">
        <ele>532.59297</ele>
        <time>2022-06-06T08:44:12.943Z</time>
      </trkpt>
      <trkpt lat="48.13555" lon="6.46017">
        <ele>532.490341</ele>
        <time>2022-06-06T08:44:15.958Z</time>
      </trkpt>
      <trkpt lat="48.13566" lon="6.46025">
        <ele>532.377398</ele>
        <time>2022-06-06T08:44:19.953Z</time>
      </trkpt>
      <trkpt lat="48.13574" lon="6.46032">
        <ele>532.290617</ele>
        <time>2022-06-06T08:44:22.960Z</time>
      </trkpt>
      <trkpt lat="48.13584" lon="6.46038">
        <ele>532.187627</ele>
        <time>2022-06-06T08:44:26.959Z</time>
      </trkpt>
      <trkpt lat="48.13594" lon="6.46038">
        <ele>532.096641</ele>
        <time>2022-06-06T08:44:29.953Z</time>
      </trkpt>
      <trkpt lat="48.13605" lon="6.46034">
        <ele>531.383295</ele>
        <time>2022-06-06T08:44:33.951Z</time>
      </trkpt>
      <trkpt lat="48.13615" lon="6.46028">
        <ele>530.490974</ele>
        <time>2022-06-06T08:44:36.918Z</time>
      </trkpt>
      <trkpt lat="48.13623" lon="6.46021">
        <ele>529.675604</ele>
        <time>2022-06-06T08:44:39.940Z</time>
      </trkpt>
      <trkpt lat="48.13632" lon="6.46016">
        <ele>528.86546</ele>
        <time>2022-06-06T08:44:42.941Z</time>
      </trkpt>
      <trkpt lat="48.13641" lon="6.46011">
        <ele>528.010422</ele>
        <time>2022-06-06T08:44:45.939Z</time>
      </trkpt>
      <trkpt lat="48.13651" lon="6.46007">
        <ele>527.164877</ele>
        <time>2022-06-06T08:44:48.942Z</time>
      </trkpt>
      <trkpt lat="48.13662" lon="6.46006">
        <ele>526.240337</ele>
        <time>2022-06-06T08:44:51.959Z</time>
      </trkpt>
      <trkpt lat="48.13671" lon="6.46008">
        <ele>525.38955</ele>
        <time>2022-06-06T08:44:54.945Z</time>
      </trkpt>
      <trkpt lat="48.13682" lon="6.46006">
        <ele>524.445264</ele>
        <time>2022-06-06T08:44:57.935Z</time>
      </trkpt>
      <trkpt lat="48.13694" lon="6.46003">
        <ele>523.407597</ele>
        <time>2022-06-06T08:45:00.946Z</time>
      </trkpt>
      <trkpt lat="48.13705" lon="6.46006">
        <ele>522.488914</ele>
        <time>2022-06-06T08:45:04.936Z</time>
      </trkpt>
      <trkpt lat="48.13717" lon="6.46007">
        <ele>521.468062</ele>
        <time>2022-06-06T08:45:08.945Z</time>
      </trkpt>
      <trkpt lat="48.13727" lon="6.4601">
        <ele>520.597783</ele>
        <time>2022-06-06T08:45:11.958Z</time>
      </trkpt>
      <trkpt lat="48.13736" lon="6.46011">
        <ele>519.785097</ele>
        <time>2022-06-06T08:45:14.941Z</time>
      </trkpt>
      <trkpt lat="48.13747" lon="6.46009">
        <ele>518.871525</ele>
        <time>2022-06-06T08:45:18.946Z</time>
      </trkpt>
      <trkpt lat="48.13758" lon="6.46006">
        <ele>517.941424</ele>
        <time>2022-06-06T08:45:22.941Z</time>
      </trkpt>
      <trkpt lat="48.13768" lon="6.46002">
        <ele>517.054376</ele>
        <time>2022-06-06T08:45:26.938Z</time>
      </trkpt>
      <trkpt lat="48.13778" lon="6.46002">
        <ele>516.307919</ele>
        <time>2022-06-06T08:45:30.939Z</time>
      </trkpt>
      <trkpt lat="48.13788" lon="6.46003">
        <ele>515.65612</ele>
        <time>2022-06-06T08:45:33.934Z</time>
      </trkpt>
      <trkpt lat="48.13798" lon="6.46001">
        <ele>514.96841</ele>
        <time>2022-06-06T08:45:36.939Z</time>
      </trkpt>
      <trkpt lat="48.13808" lon="6.45999">
        <ele>514.331727</ele>
        <time>2022-06-06T08:45:39.936Z</time>
      </trkpt>
      <trkpt lat="48.13819" lon="6.45997">
        <ele>513.565657</ele>
        <time>2022-06-06T08:45:43.943Z</time>
      </trkpt>
      <trkpt lat="48.13829" lon="6.45998">
        <ele>512.921768</ele>
        <time>2022-06-06T08:45:46.933Z</time>
      </trkpt>
      <trkpt lat="48.1384" lon="6.45994">
        <ele>512.185696</ele>
        <time>2022-06-06T08:45:51.932Z</time>
      </trkpt>
      <trkpt lat="48.1385" lon="6.45992">
        <ele>511.550523</ele>
        <time>2022-06-06T08:45:54.932Z</time>
      </trkpt>
      <trkpt lat="48.1386" lon="6.4599">
        <ele>510.85467</ele>
        <time>2022-06-06T08:45:57.937Z</time>
      </trkpt>
      <trkpt lat="48.1387" lon="6.45985">
        <ele>510.21787</ele>
        <time>2022-06-06T08:46:00.932Z</time>
      </trkpt>
      <trkpt lat="48.1388" lon="6.45978">
        <ele>509.43624</ele>
        <time>2022-06-06T08:46:04.949Z</time>
      </trkpt>
      <trkpt lat="48.1389" lon="6.45968">
        <ele>508.67566</ele>
        <time>2022-06-06T08:46:07.943Z</time>
      </trkpt>
      <trkpt lat="48.13901" lon="6.45962">
        <ele>507.913916</ele>
        <time>2022-06-06T08:46:11.945Z</time>
      </trkpt>
      <trkpt lat="48.13912" lon="6.45963">
        <ele>507.2107</ele>
        <time>2022-06-06T08:46:14.942Z</time>
      </trkpt>
      <trkpt lat="48.13923" lon="6.45961">
        <ele>506.455658</ele>
        <time>2022-06-06T08:46:18.932Z</time>
      </trkpt>
      <trkpt lat="48.13934" lon="6.45963">
        <ele>505.728781</ele>
        <time>2022-06-06T08:46:22.941Z</time>
      </trkpt>
      <trkpt lat="48.13943" lon="6.45964">
        <ele>505.132899</ele>
        <time>2022-06-06T08:46:25.971Z</time>
      </trkpt>
      <trkpt lat="48.13955" lon="6.45963">
        <ele>504.250882</ele>
        <time>2022-06-06T08:46:29.951Z</time>
      </trkpt>
      <trkpt lat="48.13963" lon="6.45958">
        <ele>503.542586</ele>
        <time>2022-06-06T08:46:32.936Z</time>
      </trkpt>
      <trkpt lat="48.13974" lon="6.45959">
        <ele>502.747423</ele>
        <time>2022-06-06T08:46:35.954Z</time>
      </trkpt>
      <trkpt lat="48.13983" lon="6.45962">
        <ele>501.99357</ele>
        <time>2022-06-06T08:46:38.948Z</time>
      </trkpt>
      <trkpt lat="48.13993" lon="6.45966">
        <ele>501.185107</ele>
        <time>2022-06-06T08:46:41.940Z</time>
      </trkpt>
      <trkpt lat="48.14003" lon="6.45969">
        <ele>500.400753</ele>
        <time>2022-06-06T08:46:44.932Z</time>
      </trkpt>
      <trkpt lat="48.14014" lon="6.45969">
        <ele>499.522094</ele>
        <time>2022-06-06T08:46:48.940Z</time>
      </trkpt>
      <trkpt lat="48.1402" lon="6.45957">
        <ele>498.77044</ele>
        <time>2022-06-06T08:46:51.935Z</time>
      </trkpt>
      <trkpt lat="48.14026" lon="6.45946">
        <ele>498.066044</ele>
        <time>2022-06-06T08:46:54.937Z</time>
      </trkpt>
      <trkpt lat="48.14036" lon="6.45945">
        <ele>497.221658</ele>
        <time>2022-06-06T08:46:58.933Z</time>
      </trkpt>
      <trkpt lat="48.14046" lon="6.45949">
        <ele>496.444039</ele>
        <time>2022-06-06T08:47:01.924Z</time>
      </trkpt>
      <trkpt lat="48.14056" lon="6.45953">
        <ele>495.63174</ele>
        <time>2022-06-06T08:47:04.957Z</time>
      </trkpt>
      <trkpt lat="48.14066" lon="6.45959">
        <ele>494.821847</ele>
        <time>2022-06-06T08:47:07.935Z</time>
      </trkpt>
      <trkpt lat="48.14074" lon="6.45966">
        <ele>494.070557</ele>
        <time>2022-06-06T08:47:10.925Z</time>
      </trkpt>
      <trkpt lat="48.14082" lon="6.45973">
        <ele>493.367275</ele>
        <time>2022-06-06T08:47:13.931Z</time>
      </trkpt>
      <trkpt lat="48.14089" lon="6.45982">
        <ele>492.608655</ele>
        <time>2022-06-06T08:47:16.951Z</time>
      </trkpt>
      <trkpt lat="48.14096" lon="6.45993">
        <ele>491.814591</ele>
        <time>2022-06-06T08:47:19.950Z</time>
      </trkpt>
      <trkpt lat="48.14106" lon="6.46004">
        <ele>490.927862</ele>
        <time>2022-06-06T08:47:23.933Z</time>
      </trkpt>
      <trkpt lat="48.14114" lon="6.46012">
        <ele>490.229922</ele>
        <time>2022-06-06T08:47:26.925Z</time>
      </trkpt>
      <trkpt lat="48.14123" lon="6.46015">
        <ele>489.593434</ele>
        <time>2022-06-06T08:47:29.929Z</time>
      </trkpt>
      <trkpt lat="48.14132" lon="6.46008">
        <ele>488.874942</ele>
        <time>2022-06-06T08:47:32.949Z</time>
      </trkpt>
      <trkpt lat="48.14139" lon="6.45995">
        <ele>488.098862</ele>
        <time>2022-06-06T08:47:35.954Z</time>
      </trkpt>
      <trkpt lat="48.1414" lon="6.45979">
        <ele>487.33297</ele>
        <time>2022-06-06T08:47:39.942Z</time>
      </trkpt>
      <trkpt lat="48.14136" lon="6.45964">
        <ele>486.577543</ele>
        <time>2022-06-06T08:47:43.939Z</time>
      </trkpt>
      <trkpt lat="48.14132" lon="6.45952">
        <ele>485.938886</ele>
        <time>2022-06-06T08:47:46.930Z</time>
      </trkpt>
      <trkpt lat="48.14128" lon="6.45939">
        <ele>485.257775</ele>
        <time>2022-06-06T08:47:49.960Z</time>
      </trkpt>
      <trkpt lat="48.14121" lon="6.45925">
        <ele>484.48857</ele>
        <time>2022-06-06T08:47:52.964Z</time>
      </trkpt>
      <trkpt lat="48.14115" lon="6.45913">
        <ele>483.771782</ele>
        <time>2022-06-06T08:47:55.954Z</time>
      </trkpt>
      <trkpt lat="48.14107" lon="6.459">
        <ele>482.918019</ele>
        <time>2022-06-06T08:47:59.934Z</time>
      </trkpt>
      <trkpt lat="48.14099" lon="6.45888">
        <ele>482.170227</ele>
        <time>2022-06-06T08:48:02.958Z</time>
      </trkpt>
      <trkpt lat="48.14092" lon="6.4588">
        <ele>481.531593</ele>
        <time>2022-06-06T08:48:05.976Z</time>
      </trkpt>
      <trkpt lat="48.14082" lon="6.45871">
        <ele>480.717567</ele>
        <time>2022-06-06T08:48:09.947Z</time>
      </trkpt>
      <trkpt lat="48.14072" lon="6.45863">
        <ele>479.904527</ele>
        <time>2022-06-06T08:48:13.961Z</time>
      </trkpt>
      <trkpt lat="48.14063" lon="6.45856">
        <ele>479.205281</ele>
        <time>2022-06-06T08:48:16.929Z</time>
      </trkpt>
      <trkpt lat="48.14054" lon="6.45849">
        <ele>478.511931</ele>
        <time>2022-06-06T08:48:19.957Z</time>
      </trkpt>
      <trkpt lat="48.14047" lon="6.45841">
        <ele>477.79481</ele>
        <time>2022-06-06T08:48:22.930Z</time>
      </trkpt>
      <trkpt lat="48.14037" lon="6.45834">
        <ele>476.992631</ele>
        <time>2022-06-06T08:48:25.941Z</time>
      </trkpt>
      <trkpt lat="48.14028" lon="6.45827">
        <ele>476.213509</ele>
        <time>2022-06-06T08:48:28.940Z</time>
      </trkpt>
      <trkpt lat="48.14019" lon="6.4582">
        <ele>475.376636</ele>
        <time>2022-06-06T08:48:32.923Z</time>
      </trkpt>
      <trkpt lat="48.14009" lon="6.45813">
        <ele>474.523345</ele>
        <time>2022-06-06T08:48:36.928Z</time>
      </trkpt>
      <trkpt lat="48.13999" lon="6.45805">
        <ele>473.644506</ele>
        <time>2022-06-06T08:48:39.931Z</time>
      </trkpt>
      <trkpt lat="48.13988" lon="6.45798">
        <ele>472.72608</ele>
        <time>2022-06-06T08:48:42.948Z</time>
      </trkpt>
      <trkpt lat="48.13978" lon="6.45795">
        <ele>471.896443</ele>
        <time>2022-06-06T08:48:45.927Z</time>
      </trkpt>
      <trkpt lat="48.13966" lon="6.45795">
        <ele>471.015402</ele>
        <time>2022-06-06T08:48:49.940Z</time>
      </trkpt>
      <trkpt lat="48.13956" lon="6.4579">
        <ele>470.131205</ele>
        <time>2022-06-06T08:48:53.942Z</time>
      </trkpt>
      <trkpt lat="48.13951" lon="6.45778">
        <ele>469.407802</ele>
        <time>2022-06-06T08:48:57.950Z</time>
      </trkpt>
      <trkpt lat="48.13961" lon="6.4577">
        <ele>468.52441</ele>
        <time>2022-06-06T08:49:02.929Z</time>
      </trkpt>
      <trkpt lat="48.13973" lon="6.45769">
        <ele>467.634479</ele>
        <time>2022-06-06T08:49:05.943Z</time>
      </trkpt>
      <trkpt lat="48.13984" lon="6.45766">
        <ele>466.761931</ele>
        <time>2022-06-06T08:49:09.945Z</time>
      </trkpt>
      <trkpt lat="48.13994" lon="6.45763">
        <ele>465.918997</ele>
        <time>2022-06-06T08:49:13.937Z</time>
      </trkpt>
      <trkpt lat="48.14004" lon="6.45761">
        <ele>465.13547</ele>
        <time>2022-06-06T08:49:16.940Z</time>
      </trkpt>
      <trkpt lat="48.14015" lon="6.45757">
        <ele>464.280975</ele>
        <time>2022-06-06T08:49:19.945Z</time>
      </trkpt>
      <trkpt lat="48.14024" lon="6.45754">
        <ele>463.601266</ele>
        <time>2022-06-06T08:49:22.941Z</time>
      </trkpt>
      <trkpt lat="48.14033" lon="6.45749">
        <ele>462.891848</ele>
        <time>2022-06-06T08:49:25.943Z</time>
      </trkpt>
      <trkpt lat="48.14044" lon="6.45746">
        <ele>462.082339</ele>
        <time>2022-06-06T08:49:29.938Z</time>
      </trkpt>
      <trkpt lat="48.14053" lon="6.45743">
        <ele>461.406312</ele>
        <time>2022-06-06T08:49:32.943Z</time>
      </trkpt>
      <trkpt lat="48.14064" lon="6.45739">
        <ele>460.637729</ele>
        <time>2022-06-06T08:49:36.932Z</time>
      </trkpt>
      <trkpt lat="48.14073" lon="6.45736">
        <ele>459.980239</ele>
        <time>2022-06-06T08:49:39.943Z</time>
      </trkpt>
      <trkpt lat="48.14082" lon="6.45734">
        <ele>459.293116</ele>
        <time>2022-06-06T08:49:42.934Z</time>
      </trkpt>
      <trkpt lat="48.14092" lon="6.45733">
        <ele>458.561604</ele>
        <time>2022-06-06T08:49:45.942Z</time>
      </trkpt>
      <trkpt lat="48.14103" lon="6.45733">
        <ele>457.809693</ele>
        <time>2022-06-06T08:49:48.937Z</time>
      </trkpt>
      <trkpt lat="48.14114" lon="6.45732">
        <ele>456.990308</ele>
        <time>2022-06-06T08:49:51.941Z</time>
      </trkpt>
      <trkpt lat="48.14125" lon="6.45729">
        <ele>456.170146</ele>
        <time>2022-06-06T08:49:54.945Z</time>
      </trkpt>
      <trkpt lat="48.14135" lon="6.45731">
        <ele>455.47656</ele>
        <time>2022-06-06T08:49:57.943Z</time>
      </trkpt>
      <trkpt lat="48.14144" lon="6.45734">
        <ele>454.81702</ele>
        <time>2022-06-06T08:50:00.925Z</time>
      </trkpt>
      <trkpt lat="48.14154" lon="6.45737">
        <ele>454.077675</ele>
        <time>2022-06-06T08:50:03.936Z</time>
      </trkpt>
      <trkpt lat="48.14162" lon="6.45741">
        <ele>453.41909</ele>
        <time>2022-06-06T08:50:06.930Z</time>
      </trkpt>
      <trkpt lat="48.14172" lon="6.45746">
        <ele>452.689102</ele>
        <time>2022-06-06T08:50:09.960Z</time>
      </trkpt>
      <trkpt lat="48.14182" lon="6.45749">
        <ele>451.935029</ele>
        <time>2022-06-06T08:50:12.929Z</time>
      </trkpt>
      <trkpt lat="48.14191" lon="6.45752">
        <ele>451.247625</ele>
        <time>2022-06-06T08:50:15.953Z</time>
      </trkpt>
      <trkpt lat="48.14201" lon="6.45756">
        <ele>450.627519</ele>
        <time>2022-06-06T08:50:18.938Z</time>
      </trkpt>
      <trkpt lat="48.1421" lon="6.4576">
        <ele>450.017424</ele>
        <time>2022-06-06T08:50:21.932Z</time>
      </trkpt>
      <trkpt lat="48.14219" lon="6.45764">
        <ele>449.411129</ele>
        <time>2022-06-06T08:50:24.944Z</time>
      </trkpt>
      <trkpt lat="48.14228" lon="6.45769">
        <ele>448.809042</ele>
        <time>2022-06-06T08:50:27.945Z</time>
      </trkpt>
      <trkpt lat="48.14236" lon="6.45773">
        <ele>448.237984</ele>
        <time>2022-06-06T08:50:30.940Z</time>
      </trkpt>
      <trkpt lat="48.14247" lon="6.45778">
        <ele>447.539996</ele>
        <time>2022-06-06T08:50:34.944Z</time>
      </trkpt>
      <trkpt lat="48.14257" lon="6.45781">
        <ele>446.904232</ele>
        <time>2022-06-06T08:50:37.948Z</time>
      </trkpt>
      <trkpt lat="48.14267" lon="6.45787">
        <ele>446.207838</ele>
        <time>2022-06-06T08:50:40.937Z</time>
      </trkpt>
      <trkpt lat="48.14277" lon="6.45792">
        <ele>445.492119</ele>
        <time>2022-06-06T08:50:43.964Z</time>
      </trkpt>
      <trkpt lat="48.14287" lon="6.45796">
        <ele>444.852418</ele>
        <time>2022-06-06T08:50:46.947Z</time>
      </trkpt>
      <trkpt lat="48.14296" lon="6.45798">
        <ele>444.255608</ele>
        <time>2022-06-06T08:50:49.936Z</time>
      </trkpt>
      <trkpt lat="48.14306" lon="6.45802">
        <ele>443.600267</ele>
        <time>2022-06-06T08:50:52.933Z</time>
      </trkpt>
      <trkpt lat="48.14315" lon="6.45805">
        <ele>443.006663</ele>
        <time>2022-06-06T08:50:55.941Z</time>
      </trkpt>
      <trkpt lat="48.14324" lon="6.45808">
        <ele>442.420642</ele>
        <time>2022-06-06T08:50:58.947Z</time>
      </trkpt>
      <trkpt lat="48.14334" lon="6.45811">
        <ele>441.799376</ele>
        <time>2022-06-06T08:51:01.928Z</time>
      </trkpt>
      <trkpt lat="48.14344" lon="6.45815">
        <ele>441.142172</ele>
        <time>2022-06-06T08:51:04.951Z</time>
      </trkpt>
      <trkpt lat="48.14355" lon="6.45819">
        <ele>440.430259</ele>
        <time>2022-06-06T08:51:08.952Z</time>
      </trkpt>
      <trkpt lat="48.14365" lon="6.45825">
        <ele>439.683853</ele>
        <time>2022-06-06T08:51:12.958Z</time>
      </trkpt>
      <trkpt lat="48.14375" lon="6.45829">
        <ele>438.989053</ele>
        <time>2022-06-06T08:51:15.952Z</time>
      </trkpt>
      <trkpt lat="48.14384" lon="6.45834">
        <ele>438.280109</ele>
        <time>2022-06-06T08:51:18.967Z</time>
      </trkpt>
      <trkpt lat="48.14393" lon="6.45839">
        <ele>437.629956</ele>
        <time>2022-06-06T08:51:21.950Z</time>
      </trkpt>
      <trkpt lat="48.14403" lon="6.45845">
        <ele>436.807681</ele>
        <time>2022-06-06T08:51:24.931Z</time>
      </trkpt>
      <trkpt lat="48.14413" lon="6.4585">
        <ele>436.091976</ele>
        <time>2022-06-06T08:51:27.932Z</time>
      </trkpt>
      <trkpt lat="48.14422" lon="6.45853">
        <ele>435.41552</ele>
        <time>2022-06-06T08:51:30.966Z</time>
      </trkpt>
      <trkpt lat="48.14433" lon="6.45857">
        <ele>434.605153</ele>
        <time>2022-06-06T08:51:34.964Z</time>
      </trkpt>
      <trkpt lat="48.14443" lon="6.45862">
        <ele>433.835114</ele>
        <time>2022-06-06T08:51:37.959Z</time>
      </trkpt>
      <trkpt lat="48.14454" lon="6.45867">
        <ele>433.033577</ele>
        <time>2022-06-06T08:51:40.952Z</time>
      </trkpt>
      <trkpt lat="48.14464" lon="6.45873">
        <ele>432.281385</ele>
        <time>2022-06-06T08:51:43.961Z</time>
      </trkpt>
      <trkpt lat="48.14474" lon="6.45877">
        <ele>431.55649</ele>
        <time>2022-06-06T08:51:46.954Z</time>
      </trkpt>
      <trkpt lat="48.14483" lon="6.45887">
        <ele>430.733774</ele>
        <time>2022-06-06T08:51:50.981Z</time>
      </trkpt>
      <trkpt lat="48.14487" lon="6.45902">
        <ele>429.980925</ele>
        <time>2022-06-06T08:51:53.946Z</time>
      </trkpt>
      <trkpt lat="48.14487" lon="6.45917">
        <ele>429.252082</ele>
        <time>2022-06-06T08:51:56.954Z</time>
      </trkpt>
      <trkpt lat="48.14486" lon="6.45932">
        <ele>428.540572</ele>
        <time>2022-06-06T08:51:59.944Z</time>
      </trkpt>
      <trkpt lat="48.14486" lon="6.45949">
        <ele>427.721227</ele>
        <time>2022-06-06T08:52:03.928Z</time>
      </trkpt>
      <trkpt lat="48.14486" lon="6.45964">
        <ele>427.030196</ele>
        <time>2022-06-06T08:52:06.947Z</time>
      </trkpt>
      <trkpt lat="48.14486" lon="6.45981">
        <ele>426.358022</ele>
        <time>2022-06-06T08:52:09.949Z</time>
      </trkpt>
      <trkpt lat="48.14485" lon="6.45995">
        <ele>425.77747</ele>
        <time>2022-06-06T08:52:12.943Z</time>
      </trkpt>
      <trkpt lat="48.14484" lon="6.46011">
        <ele>425.138435</ele>
        <time>2022-06-06T08:52:15.966Z</time>
      </trkpt>
      <trkpt lat="48.14484" lon="6.46028">
        <ele>424.502284</ele>
        <time>2022-06-06T08:52:18.956Z</time>
      </trkpt>
      <trkpt lat="48.14484" lon="6.46041">
        <ele>423.957099</ele>
        <time>2022-06-06T08:52:21.939Z</time>
      </trkpt>
      <trkpt lat="48.14484" lon="6.46055">
        <ele>423.404307</ele>
        <time>2022-06-06T08:52:24.962Z</time>
      </trkpt>
      <trkpt lat="48.14483" lon="6.4607">
        <ele>422.843587</ele>
        <time>2022-06-06T08:52:27.938Z</time>
      </trkpt>
      <trkpt lat="48.14484" lon="6.46087">
        <ele>422.159853</ele>
        <time>2022-06-06T08:52:31.938Z</time>
      </trkpt>
      <trkpt lat="48.14485" lon="6.46105">
        <ele>421.455798</ele>
        <time>2022-06-06T08:52:35.913Z</time>
      </trkpt>
      <trkpt lat="48.14484" lon="6.4612">
        <ele>420.831483</ele>
        <time>2022-06-06T08:52:38.943Z</time>
      </trkpt>
      <trkpt lat="48.14484" lon="6.46137">
        <ele>420.171975</ele>
        <time>2022-06-06T08:52:42.966Z</time>
      </trkpt>
      <trkpt lat="48.14493" lon="6.46147">
        <ele>419.538838</ele>
        <time>2022-06-06T08:52:46.916Z</time>
      </trkpt>
      <trkpt lat="48.14503" lon="6.46146">
        <ele>418.93695</ele>
        <time>2022-06-06T08:52:49.938Z</time>
      </trkpt>
      <trkpt lat="48.14512" lon="6.46141">
        <ele>418.382368</ele>
        <time>2022-06-06T08:52:52.919Z</time>
      </trkpt>
      <trkpt lat="48.1452" lon="6.46132">
        <ele>417.782992</ele>
        <time>2022-06-06T08:52:55.913Z</time>
      </trkpt>
      <trkpt lat="48.14521" lon="6.46117">
        <ele>417.207411</ele>
        <time>2022-06-06T08:52:58.927Z</time>
      </trkpt>
      <trkpt lat="48.14523" lon="6.46102">
        <ele>416.597777</ele>
        <time>2022-06-06T08:53:01.919Z</time>
      </trkpt>
      <trkpt lat="48.14528" lon="6.46088">
        <ele>416.20311</ele>
        <time>2022-06-06T08:53:04.924Z</time>
      </trkpt>
      <trkpt lat="48.14528" lon="6.46071">
        <ele>415.996894</ele>
        <time>2022-06-06T08:53:08.916Z</time>
      </trkpt>
      <trkpt lat="48.14528" lon="6.46056">
        <ele>415.804827</ele>
        <time>2022-06-06T08:53:12.933Z</time>
      </trkpt>
      <trkpt lat="48.14529" lon="6.4604">
        <ele>415.607352</ele>
        <time>2022-06-06T08:53:16.925Z</time>
      </trkpt>
      <trkpt lat="48.1453" lon="6.46023">
        <ele>415.383986</ele>
        <time>2022-06-06T08:53:20.924Z</time>
      </trkpt>
      <trkpt lat="48.14533" lon="6.46008">
        <ele>415.191708</ele>
        <time>2022-06-06T08:53:23.918Z</time>
      </trkpt>
      <trkpt lat="48.14536" lon="6.45992">
        <ele>414.986351</ele>
        <time>2022-06-06T08:53:27.941Z</time>
      </trkpt>
      <trkpt lat="48.1454" lon="6.45977">
        <ele>414.788395</ele>
        <time>2022-06-06T08:53:31.918Z</time>
      </trkpt>
      <trkpt lat="48.14542" lon="6.45962">
        <ele>414.589775</ele>
        <time>2022-06-06T08:53:34.922Z</time>
      </trkpt>
      <trkpt lat="48.14545" lon="6.45944">
        <ele>414.365098</ele>
        <time>2022-06-06T08:53:37.922Z</time>
      </trkpt>
      <trkpt lat="48.14548" lon="6.45929">
        <ele>414.167658</ele>
        <time>2022-06-06T08:53:40.924Z</time>
      </trkpt>
      <trkpt lat="48.1455" lon="6.45915">
        <ele>413.98192</ele>
        <time>2022-06-06T08:53:43.938Z</time>
      </trkpt>
      <trkpt lat="48.14552" lon="6.45899">
        <ele>413.773934</ele>
        <time>2022-06-06T08:53:47.936Z</time>
      </trkpt>
      <trkpt lat="48.14552" lon="6.45883">
        <ele>413.578213</ele>
        <time>2022-06-06T08:53:51.922Z</time>
      </trkpt>
      <trkpt lat="48.14556" lon="6.45868">
        <ele>413.380229</ele>
        <time>2022-06-06T08:53:55.918Z</time>
      </trkpt>
      <trkpt lat="48.1456" lon="6.45854">
        <ele>413.188224</ele>
        <time>2022-06-06T08:53:59.915Z</time>
      </trkpt>
      <trkpt lat="48.14564" lon="6.45839">
        <ele>412.984628</ele>
        <time>2022-06-06T08:54:03.923Z</time>
      </trkpt>
      <trkpt lat="48.14568" lon="6.45825">
        <ele>412.890939</ele>
        <time>2022-06-06T08:54:06.920Z</time>
      </trkpt>
      <trkpt lat="48.14573" lon="6.45811">
        <ele>412.819889</ele>
        <time>2022-06-06T08:54:10.917Z</time>
      </trkpt>
      <trkpt lat="48.14578" lon="6.45797">
        <ele>412.741836</ele>
        <time>2022-06-06T08:54:14.925Z</time>
      </trkpt>
      <trkpt lat="48.14584" lon="6.45785">
        <ele>412.67522</ele>
        <time>2022-06-06T08:54:17.924Z</time>
      </trkpt>
      <trkpt lat="48.14589" lon="6.45773">
        <ele>412.613901</ele>
        <time>2022-06-06T08:54:20.942Z</time>
      </trkpt>
      <trkpt lat="48.14594" lon="6.45759">
        <ele>412.537615</ele>
        <time>2022-06-06T08:54:24.912Z</time>
      </trkpt>
      <trkpt lat="48.14601" lon="6.45744">
        <ele>412.454726</ele>
        <time>2022-06-06T08:54:28.923Z</time>
      </trkpt>
      <trkpt lat="48.14607" lon="6.45733">
        <ele>412.392353</ele>
        <time>2022-06-06T08:54:31.917Z</time>
      </trkpt>
      <trkpt lat="48.14613" lon="6.45722">
        <ele>412.328844</ele>
        <time>2022-06-06T08:54:34.921Z</time>
      </trkpt>
      <trkpt lat="48.14619" lon="6.45711">
        <ele>412.263492</ele>
        <time>2022-06-06T08:54:37.926Z</time>
      </trkpt>
      <trkpt lat="48.14625" lon="6.45701">
        <ele>412.20083</ele>
        <time>2022-06-06T08:54:40.935Z</time>
      </trkpt>
      <trkpt lat="48.14632" lon="6.45688">
        <ele>412.124656</ele>
        <time>2022-06-06T08:54:43.937Z</time>
      </trkpt>
      <trkpt lat="48.14638" lon="6.45677">
        <ele>412.060149</ele>
        <time>2022-06-06T08:54:46.931Z</time>
      </trkpt>
      <trkpt lat="48.14644" lon="6.45666">
        <ele>411.996804</ele>
        <time>2022-06-06T08:54:49.916Z</time>
      </trkpt>
      <trkpt lat="48.1465" lon="6.45654">
        <ele>411.927966</ele>
        <time>2022-06-06T08:54:52.916Z</time>
      </trkpt>
      <trkpt lat="48.14656" lon="6.45643">
        <ele>411.863556</ele>
        <time>2022-06-06T08:54:55.922Z</time>
      </trkpt>
      <trkpt lat="48.14663" lon="6.45629">
        <ele>411.78282</ele>
        <time>2022-06-06T08:54:59.926Z</time>
      </trkpt>
      <trkpt lat="48.1467" lon="6.45615">
        <ele>411.704643</ele>
        <time>2022-06-06T08:55:03.925Z</time>
      </trkpt>
      <trkpt lat="48.14676" lon="6.45601">
        <ele>411.616996</ele>
        <time>2022-06-06T08:55:07.927Z</time>
      </trkpt>
      <trkpt lat="48.14681" lon="6.45589">
        <ele>411.542041</ele>
        <time>2022-06-06T08:55:10.920Z</time>
      </trkpt>
      <trkpt lat="48.14689" lon="6.45577">
        <ele>411.4523</ele>
        <time>2022-06-06T08:55:13.925Z</time>
      </trkpt>
      <trkpt lat="48.14695" lon="6.45566">
        <ele>411.376631</ele>
        <time>2022-06-06T08:55:16.914Z</time>
      </trkpt>
      <trkpt lat="48.14701" lon="6.45556">
        <ele>411.304597</ele>
        <time>2022-06-06T08:55:19.926Z</time>
      </trkpt>
      <trkpt lat="48.14709" lon="6.45542">
        <ele>411.208557</ele>
        <time>2022-06-06T08:55:23.904Z</time>
      </trkpt>
      <trkpt lat="48.14715" lon="6.45529">
        <ele>411.127462</ele>
        <time>2022-06-06T08:55:26.915Z</time>
      </trkpt>
      <trkpt lat="48.14721" lon="6.45519">
        <ele>411.053519</ele>
        <time>2022-06-06T08:55:29.924Z</time>
      </trkpt>
      <trkpt lat="48.14729" lon="6.45506">
        <ele>410.964332</ele>
        <time>2022-06-06T08:55:33.922Z</time>
      </trkpt>
      <trkpt lat="48.14736" lon="6.45496">
        <ele>410.883901</ele>
        <time>2022-06-06T08:55:36.928Z</time>
      </trkpt>
      <trkpt lat="48.14744" lon="6.45484">
        <ele>410.796885</ele>
        <time>2022-06-06T08:55:39.919Z</time>
      </trkpt>
      <trkpt lat="48.14751" lon="6.45474">
        <ele>410.71962</ele>
        <time>2022-06-06T08:55:42.920Z</time>
      </trkpt>
      <trkpt lat="48.14759" lon="6.45463">
        <ele>410.633395</ele>
        <time>2022-06-06T08:55:45.926Z</time>
      </trkpt>
      <trkpt lat="48.14766" lon="6.45454">
        <ele>410.559973</ele>
        <time>2022-06-06T08:55:48.926Z</time>
      </trkpt>
      <trkpt lat="48.14773" lon="6.45444">
        <ele>410.485994</ele>
        <time>2022-06-06T08:55:51.923Z</time>
      </trkpt>
      <trkpt lat="48.14779" lon="6.45434">
        <ele>410.411706</ele>
        <time>2022-06-06T08:55:54.925Z</time>
      </trkpt>
      <trkpt lat="48.14787" lon="6.45424">
        <ele>410.326694</ele>
        <time>2022-06-06T08:55:57.920Z</time>
      </trkpt>
      <trkpt lat="48.14794" lon="6.45414">
        <ele>410.341891</ele>
        <time>2022-06-06T08:56:00.918Z</time>
      </trkpt>
      <trkpt lat="48.14802" lon="6.45402">
        <ele>410.432322</ele>
        <time>2022-06-06T08:56:04.927Z</time>
      </trkpt>
      <trkpt lat="48.14809" lon="6.45389">
        <ele>410.523417</ele>
        <time>2022-06-06T08:56:08.924Z</time>
      </trkpt>
      <trkpt lat="48.14816" lon="6.45377">
        <ele>410.613215</ele>
        <time>2022-06-06T08:56:12.920Z</time>
      </trkpt>
      <trkpt lat="48.14823" lon="6.45364">
        <ele>410.703768</ele>
        <time>2022-06-06T08:56:16.913Z</time>
      </trkpt>
      <trkpt lat="48.14829" lon="6.45351">
        <ele>410.790092</ele>
        <time>2022-06-06T08:56:20.927Z</time>
      </trkpt>
      <trkpt lat="48.14836" lon="6.45338">
        <ele>410.879897</ele>
        <time>2022-06-06T08:56:24.913Z</time>
      </trkpt>
      <trkpt lat="48.14843" lon="6.45325">
        <ele>410.970329</ele>
        <time>2022-06-06T08:56:28.918Z</time>
      </trkpt>
      <trkpt lat="48.14849" lon="6.45315">
        <ele>411.044121</ele>
        <time>2022-06-06T08:56:31.918Z</time>
      </trkpt>
      <trkpt lat="48.14856" lon="6.45304">
        <ele>411.129652</ele>
        <time>2022-06-06T08:56:34.926Z</time>
      </trkpt>
      <trkpt lat="48.14863" lon="6.45292">
        <ele>411.210036</ele>
        <time>2022-06-06T08:56:37.906Z</time>
      </trkpt>
      <trkpt lat="48.14869" lon="6.45281">
        <ele>411.289185</ele>
        <time>2022-06-06T08:56:40.907Z</time>
      </trkpt>
      <trkpt lat="48.14869" lon="6.45267">
        <ele>411.36666</ele>
        <time>2022-06-06T08:56:44.906Z</time>
      </trkpt>
      <trkpt lat="48.14863" lon="6.45256">
        <ele>411.446239</ele>
        <time>2022-06-06T08:56:50.909Z</time>
      </trkpt>
      <trkpt lat="48.14854" lon="6.45253">
        <ele>411.52328</ele>
        <time>2022-06-06T08:56:56.905Z</time>
      </trkpt>
      <trkpt lat="48.14845" lon="6.4526">
        <ele>411.605989</ele>
        <time>2022-06-06T08:57:00.894Z</time>
      </trkpt>
      <trkpt lat="48.14837" lon="6.45268">
        <ele>411.68938</ele>
        <time>2022-06-06T08:57:04.918Z</time>
      </trkpt>
      <trkpt lat="48.14828" lon="6.45275">
        <ele>411.766538</ele>
        <time>2022-06-06T08:57:09.903Z</time>
      </trkpt>
      <trkpt lat="48.14818" lon="6.45273">
        <ele>411.766538</ele>
        <time>2022-06-06T08:57:13.923Z</time>
      </trkpt>
      <trkpt lat="48.14806" lon="6.45268">
        <ele>411.766538</ele>
        <time>2022-06-06T08:57:17.918Z</time>
      </trkpt>
      <trkpt lat="48.14794" lon="6.45264">
        <ele>411.766538</ele>
        <time>2022-06-06T08:57:21.897Z</time>
      </trkpt>
      <trkpt lat="48.14785" lon="6.45261">
        <ele>411.766538</ele>
        <time>2022-06-06T08:57:24.900Z</time>
      </trkpt>
      <trkpt lat="48.14776" lon="6.45257">
        <ele>411.766538</ele>
        <time>2022-06-06T08:57:27.898Z</time>
      </trkpt>
      <trkpt lat="48.14769" lon="6.45248">
        <ele>411.766538</ele>
        <time>2022-06-06T08:57:31.903Z</time>
      </trkpt>
      <trkpt lat="48.14769" lon="6.45234">
        <ele>411.766538</ele>
        <time>2022-06-06T08:57:35.911Z</time>
      </trkpt>
      <trkpt lat="48.14772" lon="6.45218">
        <ele>411.766538</ele>
        <time>2022-06-06T08:57:39.901Z</time>
      </trkpt>
      <trkpt lat="48.14773" lon="6.45201">
        <ele>411.766538</ele>
        <time>2022-06-06T08:57:42.979Z</time>
      </trkpt>
      <trkpt lat="48.14774" lon="6.45187">
        <ele>411.766538</ele>
        <time>2022-06-06T08:57:45.903Z</time>
      </trkpt>
      <trkpt lat="48.14775" lon="6.45173">
        <ele>411.766538</ele>
        <time>2022-06-06T08:57:49.903Z</time>
      </trkpt>
      <trkpt lat="48.14781" lon="6.45162">
        <ele>411.766538</ele>
        <time>2022-06-06T08:57:54.900Z</time>
      </trkpt>
      <trkpt lat="48.14791" lon="6.45159">
        <ele>411.766538</ele>
        <time>2022-06-06T08:57:59.904Z</time>
      </trkpt>
      <trkpt lat="48.14794" lon="6.45159">
        <ele>411.766538</ele>
        <time>2022-06-06T08:58:12.447Z</time>
      </trkpt>
    </trkseg>
  </trk>
</gpx>